SondeTracker

Meteorological Radiosondes Database

Operations

Sounding was ended - last measurement: 2022-12-07 01:09:45z

MAP
About Radiosonde

Number: D22035303 (22035303)

Launch Site: Spokane [WA] (US)

Type: DFM17

AUX: NO

Frequency: 403.211 MHz

Max Speed: 176 km/h at 30335 m

Average Speed: 80.44 km/h

Max Altitude: 33248 m

Average Ascent Speed: 4.94 m/s

Average Descent Speed: 22.98 m/s

Status: UNKNOWN

Status Changes
Launch Site Type AUX Frequency Status Finder Landing Point Description Changes made by
APRS Statistics

Received Frames: 527

First Frame [UTC]: 2022-12-06 23:04:57z

Last Frame [UTC]: 2022-12-07 01:09:45z

Receivers: K7MTD, KA7FVV, WA7BFN, WB7NNF

Flight Time: 02:04:48 h

Distance From First Measurement: 156.92 km

Nearest City: Moscow [ID] (US) [71.88 km]

Nearest Hunter: [0.00 km]

Ground Altitude: 975 m

Distance from QTH: 0.00 km

APRS Data
Receiver Number Date/Time [UTC] φ λ Course [°] Speed [km/h] Altitude [m] Description
K7MTDD220353032022-12-07 01:09:4546.7574-116.0571589110402Clb=-15.5m/s t=-59.8C h=-1.0% p=-1.0hPa 403.211 MHz Type=DFM17 ser=22035303 Radiosonde
K7MTDD220353032022-12-07 01:09:1146.7612-116.0591468910674Clb=-12.9m/s t=-60.6C h=-1.0% p=-1.0hPa 403.211 MHz Type=DFM17 ser=22035303 Radiosonde
K7MTDD220353032022-12-07 01:08:3946.7673-116.06714310611109Clb=-14.9m/s t=-62.1C h=-1.0% p=-1.0hPa 403.211 MHz Type=DFM17 ser=22035303 Radiosonde
K7MTDD220353032022-12-07 01:08:0846.7747-116.0731477211699Clb=-17.2m/s t=-61.2C h=-1.0% p=-1.0hPa 403.211 MHz Type=DFM17 ser=22035303 Radiosonde
K7MTDD220353032022-12-07 01:06:5846.7828-116.0851288512577Clb=-15.0m/s t=-61.1C h=-1.0% p=-1.0hPa 403.211 MHz Type=DFM17 ser=22035303 Radiosonde
KA7FVVD220353032022-12-07 01:06:5146.7852-116.0891268312823Clb=-15.4m/s t=-60.5C h=-1.0% p=-1.0hPa 403.211 MHz Type=DFM17 ser=22035303 Radiosonde
K7MTDD220353032022-12-07 01:06:2446.7867-116.0921357212992Clb=-14.7m/s t=-59.7C h=-1.0% p=-1.0hPa 403.211 MHz Type=DFM17 ser=22035303 Radiosonde
KA7FVVD220353032022-12-07 01:06:1746.7878-116.0941287013127Clb=-10.2m/s t=-60.0C h=-1.0% p=-1.0hPa 403.211 MHz Type=DFM17 ser=22035303 Radiosonde
K7MTDD220353032022-12-07 01:05:5046.79-116.0981266913426Clb=-19.1m/s t=-58.4C h=-1.0% p=-1.0hPa 403.211 MHz Type=DFM17 ser=22035303 Radiosonde
KA7FVVD220353032022-12-07 01:05:4246.791-116.11216113582Clb=-14.6m/s t=-58.3C h=-1.0% p=-1.0hPa 403.211 MHz Type=DFM17 ser=22035303 Radiosonde
K7MTDD220353032022-12-07 01:05:1546.7935-116.1061267413983Clb=-14.2m/s t=-58.1C h=-1.0% p=-1.0hPa 403.211 MHz Type=DFM17 ser=22035303 Radiosonde
KA7FVVD220353032022-12-07 01:05:0746.7935-116.1061267413983Clb=-14.2m/s t=-58.1C h=-1.0% p=-1.0hPa 403.211 MHz Type=DFM17 ser=22035303 Radiosonde
K7MTDD220353032022-12-07 01:04:4146.7964-116.1121288314370Clb=-15.7m/s t=-57.5C h=-1.0% p=-1.0hPa 403.211 MHz Type=DFM17 ser=22035303 Radiosonde
KA7FVVD220353032022-12-07 01:04:3346.7975-116.1141277414514Clb=-17.7m/s t=-57.8C h=-1.0% p=-1.0hPa 403.211 MHz Type=DFM17 ser=22035303 Radiosonde
K7MTDD220353032022-12-07 01:04:0646.7996-116.1191187614864Clb=-15.5m/s t=-58.4C h=-1.0% p=-1.0hPa 403.211 MHz Type=DFM17 ser=22035303 Radiosonde
KA7FVVD220353032022-12-07 01:03:5846.8003-116.1211188514985Clb=-15.4m/s t=-58.4C h=-1.0% p=-1.0hPa 403.211 MHz Type=DFM17 ser=22035303 Radiosonde
K7MTDD220353032022-12-07 01:03:3546.8025-116.1271058015358Clb=-15.3m/s t=-57.2C h=-1.0% p=-1.0hPa 403.211 MHz Type=DFM17 ser=22035303 Radiosonde
KA7FVVD220353032022-12-07 01:03:2746.8029-116.1291028515479Clb=-14.3m/s t=-57.9C h=-1.0% p=-1.0hPa 403.211 MHz Type=DFM17 ser=22035303 Radiosonde
K7MTDD220353032022-12-07 01:03:0446.804-116.13710310015821Clb=-13.9m/s t=-58.3C h=-1.0% p=-1.0hPa 403.211 MHz Type=DFM17 ser=22035303 Radiosonde
KA7FVVD220353032022-12-07 01:02:5646.8046-116.141129615944Clb=-14.1m/s t=-58.7C h=-1.0% p=-1.0hPa 403.211 MHz Type=DFM17 ser=22035303 Radiosonde
WB7NNFD220353032022-12-07 01:02:3946.8062-116.1451188716214Clb=-17.8m/s t=-59.0C h=-1.0% p=-1.0hPa 403.204 MHz Type=DFM17 ser=22035303 Radiosonde
K7MTDD220353032022-12-07 01:02:3346.8068-116.1471218516321Clb=-17.8m/s t=-59.0C h=-1.0% p=-1.0hPa 403.211 MHz Type=DFM17 ser=22035303 Radiosonde
KA7FVVD220353032022-12-07 01:02:2546.8076-116.1491188516440Clb=-16.3m/s t=-59.3C h=-1.0% p=-1.0hPa 403.211 MHz Type=DFM17 ser=22035303 Radiosonde
WB7NNFD220353032022-12-07 01:02:0846.8097-116.1541189416744Clb=-17.1m/s t=-60.0C h=-1.0% p=-1.0hPa 403.204 MHz Type=DFM17 ser=22035303 Radiosonde
K7MTDD220353032022-12-07 01:02:0246.8102-116.1561219416812Clb=-17.3m/s t=-59.9C h=-1.0% p=-1.0hPa 403.211 MHz Type=DFM17 ser=22035303 Radiosonde
KA7FVVD220353032022-12-07 01:01:5446.8115-116.15812810216963Clb=-17.5m/s t=-59.1C h=-1.0% p=-1.0hPa 403.211 MHz Type=DFM17 ser=22035303 Radiosonde
WB7NNFD220353032022-12-07 01:01:3846.8145-116.1621419817262Clb=-17.0m/s t=-58.5C h=-1.0% p=-1.0hPa 403.204 MHz Type=DFM17 ser=22035303 Radiosonde
K7MTDD220353032022-12-07 01:01:3146.8158-116.1641429317382Clb=-19.3m/s t=-58.1C h=-1.0% p=-1.0hPa 403.211 MHz Type=DFM17 ser=22035303 Radiosonde
KA7FVVD220353032022-12-07 01:01:2346.817-116.1651428917513Clb=-18.4m/s t=-57.8C h=-1.0% p=-1.0hPa 403.211 MHz Type=DFM17 ser=22035303 Radiosonde
K7MTDD220353032022-12-07 01:00:5946.8216-116.1731299118143Clb=-21.6m/s t=-57.0C h=-1.0% p=-1.0hPa 403.211 MHz Type=DFM17 ser=22035303 Radiosonde
KA7FVVD220353032022-12-07 01:00:5446.8218-116.1731298918165Clb=-21.7m/s t=-56.9C h=-1.0% p=-1.0hPa 403.211 MHz Type=DFM17 ser=22035303 Radiosonde
K7MTDD220353032022-12-07 01:00:5346.825-116.1791397818701Clb=-26.9m/s t=-57.8C h=-1.0% p=-1.0hPa 403.211 MHz Type=DFM17 ser=22035303 Radiosonde
K7MTDD220353032022-12-07 01:00:5246.8289-116.1851248519419Clb=-22.9m/s t=-58.7C h=-1.0% p=-1.0hPa 403.211 MHz Type=DFM17 ser=22035303 Radiosonde
KA7FVVD220353032022-12-07 01:00:5146.8298-116.1871199119590Clb=-21.7m/s t=-59.3C h=-1.0% p=-1.0hPa 403.211 MHz Type=DFM17 ser=22035303 Radiosonde
K7MTDD220353032022-12-07 01:00:5046.8325-116.1931289120130Clb=-23.1m/s t=-59.8C h=-1.0% p=-1.0hPa 403.211 MHz Type=DFM17 ser=22035303 Radiosonde
WB7NNFD220353032022-12-07 01:00:4946.8374-116.1991499620704Clb=-24.2m/s t=-60.2C h=-1.0% p=-1.0hPa 403.204 MHz Type=DFM17 ser=22035303 Radiosonde
KA7FVVD220353032022-12-07 01:00:4846.8402-116.2011479420995Clb=-19.2m/s t=-59.1C h=-1.0% p=-1.0hPa 403.211 MHz Type=DFM17 ser=22035303 Radiosonde
WB7NNFD220353032022-12-07 01:00:4746.8439-116.2041427221366Clb=-18.8m/s t=-57.2C h=-1.0% p=-1.0hPa 403.204 MHz Type=DFM17 ser=22035303 Radiosonde
KA7FVVD220353032022-12-07 01:00:4646.8456-116.2061289121595Clb=-20.4m/s t=-56.3C h=-1.0% p=-1.0hPa 403.211 MHz Type=DFM17 ser=22035303 Radiosonde
WB7NNFD220353032022-12-07 01:00:4146.8477-116.2111268021980Clb=-21.2m/s t=-53.4C h=-1.0% p=-1.0hPa 403.204 MHz Type=DFM17 ser=22035303 Radiosonde
K7MTDD220353032022-12-07 01:00:3946.8483-116.2121107022134Clb=-20.6m/s t=-53.5C h=-1.0% p=-1.0hPa 403.211 MHz Type=DFM17 ser=22035303 Radiosonde
KA7FVVD220353032022-12-07 01:00:3846.8487-116.214976922285Clb=-22.3m/s t=-53.7C h=-1.0% p=-1.0hPa 403.211 MHz Type=DFM17 ser=22035303 Radiosonde
K7MTDD220353032022-12-07 01:00:3246.8496-116.221148122799Clb=-16.2m/s t=-55.7C h=-1.0% p=-1.0hPa 403.211 MHz Type=DFM17 ser=22035303 Radiosonde
KA7FVVD220353032022-12-07 01:00:3046.8503-116.2221248522917Clb=-17.3m/s t=-55.4C h=-1.0% p=-1.0hPa 403.211 MHz Type=DFM17 ser=22035303 Radiosonde
K7MTDD220353032022-12-07 01:00:2146.8522-116.2281025923385Clb=-20.9m/s t=-56.1C h=-1.0% p=-1.0hPa 403.211 MHz Type=DFM17 ser=22035303 Radiosonde
K7MTDD220353032022-12-07 01:00:2046.853-116.235977624090Clb=-22.6m/s t=-58.9C h=-1.0% p=-1.0hPa 403.211 MHz Type=DFM17 ser=22035303 Radiosonde
K7MTDD220353032022-12-07 01:00:1946.8555-116.2431306924726Clb=-21.1m/s t=-58.1C h=-1.0% p=-1.0hPa 403.211 MHz Type=DFM17 ser=22035303 Radiosonde
K7MTDD220353032022-12-07 01:00:0846.8581-116.2471304125463Clb=-21.8m/s t=-59.0C h=-1.0% p=-1.0hPa 403.211 MHz Type=DFM17 ser=22035303 Radiosonde
KA7FVVD220353032022-12-07 01:00:0146.8587-116.2481274825646Clb=-23.4m/s t=-59.5C h=-1.0% p=-1.0hPa 403.211 MHz Type=DFM17 ser=22035303 Radiosonde
K7MTDD220353032022-12-07 00:59:3246.86-116.2531155726143Clb=-18.9m/s t=-60.7C h=-1.0% p=-1.0hPa 403.211 MHz Type=DFM17 ser=22035303 Radiosonde
KA7FVVD220353032022-12-07 00:59:2246.8606-116.2541195926365Clb=-24.2m/s t=-61.2C h=-1.0% p=-1.0hPa 403.211 MHz Type=DFM17 ser=22035303 Radiosonde
K7MTDD220353032022-12-07 00:58:4946.8622-116.2591035426950Clb=-26.3m/s t=-57.3C h=-1.0% p=-1.0hPa 403.211 MHz Type=DFM17 ser=22035303 Radiosonde
KA7FVVD220353032022-12-07 00:58:3946.8625-116.2611085627144Clb=-21.2m/s t=-57.5C h=-1.0% p=-1.0hPa 403.211 MHz Type=DFM17 ser=22035303 Radiosonde
K7MTDD220353032022-12-07 00:58:0746.8627-116.266895927703Clb=-23.8m/s t=-58.8C h=-1.0% p=-1.0hPa 403.211 MHz Type=DFM17 ser=22035303 Radiosonde
KA7FVVD220353032022-12-07 00:57:5746.8626-116.268837227862Clb=-26.2m/s t=-59.4C h=-1.0% p=-1.0hPa 403.211 MHz Type=DFM17 ser=22035303 Radiosonde
K7MTDD220353032022-12-07 00:57:2546.8622-116.273867228447Clb=-27.3m/s t=-59.7C h=-1.0% p=-1.0hPa 403.211 MHz Type=DFM17 ser=22035303 Radiosonde
KA7FVVD220353032022-12-07 00:57:1546.8623-116.2751037228650Clb=-23.9m/s t=-59.5C h=-1.0% p=-1.0hPa 403.211 MHz Type=DFM17 ser=22035303 Radiosonde
K7MTDD220353032022-12-07 00:56:4446.8639-116.2811187629279Clb=-26.4m/s t=-60.1C h=-1.0% p=-1.0hPa 403.211 MHz Type=DFM17 ser=22035303 Radiosonde
KA7FVVD220353032022-12-07 00:56:3446.8645-116.2831108529507Clb=-33.2m/s t=-60.2C h=-1.0% p=-1.0hPa 403.211 MHz Type=DFM17 ser=22035303 Radiosonde
K7MTDD220353032022-12-07 00:56:0246.867-116.29112411130166Clb=-29.6m/s t=-61.0C h=-1.0% p=-1.0hPa 403.211 MHz Type=DFM17 ser=22035303 Radiosonde
KA7FVVD220353032022-12-07 00:55:5146.8681-116.29312311730396Clb=-29.0m/s t=-61.5C h=-1.0% p=-1.0hPa 403.211 MHz Type=DFM17 ser=22035303 Radiosonde
WB7NNFD220353032022-12-07 00:55:2946.8714-116.312310730989Clb=-29.8m/s t=-62.4C h=-1.0% p=-1.0hPa 403.207 MHz Type=DFM17 ser=22035303 Radiosonde
K7MTDD220353032022-12-07 00:55:2046.8719-116.3011139431110Clb=-28.6m/s t=-61.9C h=-1.0% p=-1.0hPa 403.211 MHz Type=DFM17 ser=22035303 Radiosonde
KA7FVVD220353032022-12-07 00:55:1046.8726-116.30410010431356Clb=-19.6m/s t=-60.8C h=-1.0% p=-1.0hPa 403.211 MHz Type=DFM17 ser=22035303 Radiosonde
WB7NNFD220353032022-12-07 00:54:4946.8744-116.3111414631718Clb=-23.2m/s t=-60.9C h=-1.0% p=-1.0hPa 403.207 MHz Type=DFM17 ser=22035303 Radiosonde
K7MTDD220353032022-12-07 00:54:3946.8755-116.31312115231868Clb=-27.2m/s t=-60.6C h=-1.0% p=-1.0hPa 403.211 MHz Type=DFM17 ser=22035303 Radiosonde
KA7FVVD220353032022-12-07 00:54:2946.8771-116.31614012632021Clb=-25.1m/s t=-60.3C h=-1.0% p=-1.0hPa 403.211 MHz Type=DFM17 ser=22035303 Radiosonde
WB7NNFD220353032022-12-07 00:54:0646.8815-116.32212912632543Clb=-24.4m/s t=-61.1C h=-1.0% p=-1.0hPa 403.207 MHz Type=DFM17 ser=22035303 Radiosonde
K7MTDD220353032022-12-07 00:53:5546.8827-116.32413410432661Clb=-19.9m/s t=-61.1C h=-1.0% p=-1.0hPa 403.211 MHz Type=DFM17 ser=22035303 Radiosonde
KA7FVVD220353032022-12-07 00:53:4446.8838-116.32614112232814Clb=-24.1m/s t=-60.6C h=-1.0% p=-1.0hPa 403.211 MHz Type=DFM17 ser=22035303 Radiosonde
WB7NNFD220353032022-12-07 00:53:2246.8862-116.33510110733248Clb=6.8m/s t=-58.9C h=-1.0% p=-1.0hPa 403.207 MHz Type=DFM17 ser=22035303 Radiosonde
K7MTDD220353032022-12-07 00:53:1146.8862-116.33510110733248Clb=6.8m/s t=-58.9C h=-1.0% p=-1.0hPa 403.211 MHz Type=DFM17 ser=22035303 Radiosonde
KA7FVVD220353032022-12-07 00:53:0046.887-116.33911212633187Clb=5.5m/s t=-58.5C h=-1.0% p=-1.0hPa 403.211 MHz Type=DFM17 ser=22035303 Radiosonde
WB7NNFD220353032022-12-07 00:52:3846.8882-116.3441039833083Clb=5.3m/s t=-58.5C h=-1.0% p=-1.0hPa 403.207 MHz Type=DFM17 ser=22035303 Radiosonde
K7MTDD220353032022-12-07 00:52:2546.8887-116.34810310633035Clb=8.1m/s t=-58.9C h=-1.0% p=-1.0hPa 403.211 MHz Type=DFM17 ser=22035303 Radiosonde
KA7FVVD220353032022-12-07 00:52:1246.8897-116.35110311932981Clb=7.5m/s t=-59.1C h=-1.0% p=-1.0hPa 403.211 MHz Type=DFM17 ser=22035303 Radiosonde
WB7NNFD220353032022-12-07 00:51:4946.8914-116.35711115232879Clb=7.3m/s t=-60.1C h=-1.0% p=-1.0hPa 403.207 MHz Type=DFM17 ser=22035303 Radiosonde
K7MTDD220353032022-12-07 00:51:3846.8926-116.3611512432830Clb=9.0m/s t=-60.5C h=-1.0% p=-1.0hPa 403.211 MHz Type=DFM17 ser=22035303 Radiosonde
KA7FVVD220353032022-12-07 00:51:2546.8939-116.3621469832786Clb=2.1m/s t=-60.6C h=-1.0% p=-1.0hPa 403.211 MHz Type=DFM17 ser=22035303 Radiosonde
WB7NNFD220353032022-12-07 00:51:0346.8974-116.36814812632686Clb=-1.4m/s t=-60.4C h=-1.0% p=-1.0hPa 403.207 MHz Type=DFM17 ser=22035303 Radiosonde
K7MTDD220353032022-12-07 00:50:5246.898-116.3711610232660Clb=-0.1m/s t=-60.4C h=-1.0% p=-1.0hPa 403.211 MHz Type=DFM17 ser=22035303 Radiosonde
KA7FVVD220353032022-12-07 00:50:3946.8999-116.37212611132614Clb=1.3m/s t=-60.6C h=-1.0% p=-1.0hPa 403.211 MHz Type=DFM17 ser=22035303 Radiosonde
K7MTDD220353032022-12-07 00:50:0646.904-116.37814313132518Clb=9.6m/s t=-60.5C h=-1.0% p=-1.0hPa 403.211 MHz Type=DFM17 ser=22035303 Radiosonde
KA7FVVD220353032022-12-07 00:49:5346.9057-116.38113811132487Clb=4.5m/s t=-60.6C h=-1.0% p=-1.0hPa 403.211 MHz Type=DFM17 ser=22035303 Radiosonde
WB7NNFD220353032022-12-07 00:49:3146.9097-116.3861399832412Clb=0.5m/s t=-60.3C h=-1.0% p=-1.0hPa 403.207 MHz Type=DFM17 ser=22035303 Radiosonde
K7MTDD220353032022-12-07 00:49:2146.9111-116.38813813032394Clb=4.5m/s t=-60.3C h=-1.0% p=-1.0hPa 403.211 MHz Type=DFM17 ser=22035303 Radiosonde
KA7FVVD220353032022-12-07 00:49:0746.9128-116.3913815232357Clb=-2.9m/s t=-60.3C h=-1.0% p=-1.0hPa 403.211 MHz Type=DFM17 ser=22035303 Radiosonde
K7MTDD220353032022-12-07 00:48:3546.9176-116.3951598032257Clb=-0.2m/s t=-60.3C h=-1.0% p=-1.0hPa 403.211 MHz Type=DFM17 ser=22035303 Radiosonde
KA7FVVD220353032022-12-07 00:48:2146.9196-116.3971579332214Clb=3.9m/s t=-60.1C h=-1.0% p=-1.0hPa 403.211 MHz Type=DFM17 ser=22035303 Radiosonde
K7MTDD220353032022-12-07 00:47:4846.925-116.4031527432090Clb=6.2m/s t=-59.4C h=-1.0% p=-1.0hPa 403.211 MHz Type=DFM17 ser=22035303 Radiosonde
KA7FVVD220353032022-12-07 00:47:3546.927-116.40513710232048Clb=9.8m/s t=-59.2C h=-1.0% p=-1.0hPa 403.211 MHz Type=DFM17 ser=22035303 Radiosonde
K7MTDD220353032022-12-07 00:46:5746.9316-116.41112011531897Clb=5.8m/s t=-59.1C h=-1.0% p=-1.0hPa 403.211 MHz Type=DFM17 ser=22035303 Radiosonde
KA7FVVD220353032022-12-07 00:46:4446.9334-116.41411012031826Clb=4.2m/s t=-59.1C h=-1.0% p=-1.0hPa 403.211 MHz Type=DFM17 ser=22035303 Radiosonde
K7MTDD220353032022-12-07 00:46:0946.9372-116.42214114131648Clb=-3.0m/s t=-59.1C h=-1.0% p=-1.0hPa 403.211 MHz Type=DFM17 ser=22035303 Radiosonde
KA7FVVD220353032022-12-07 00:45:5846.9383-116.42513913531590Clb=10.7m/s t=-58.9C h=-1.0% p=-1.0hPa 403.211 MHz Type=DFM17 ser=22035303 Radiosonde
K7MTDD220353032022-12-07 00:45:2246.942-116.433909431421Clb=11.9m/s t=-59.1C h=-1.0% p=-1.0hPa 403.211 MHz Type=DFM17 ser=22035303 Radiosonde
KA7FVVD220353032022-12-07 00:45:1046.943-116.437958731359Clb=-1.4m/s t=-58.9C h=-1.0% p=-1.0hPa 403.211 MHz Type=DFM17 ser=22035303 Radiosonde
K7MTDD220353032022-12-07 00:44:3646.9452-116.44412812031226Clb=9.2m/s t=-59.2C h=-1.0% p=-1.0hPa 403.211 MHz Type=DFM17 ser=22035303 Radiosonde
KA7FVVD220353032022-12-07 00:44:2546.9459-116.44712410031176Clb=9.7m/s t=-59.6C h=-1.0% p=-1.0hPa 403.211 MHz Type=DFM17 ser=22035303 Radiosonde
K7MTDD220353032022-12-07 00:43:5546.9482-116.455884131016Clb=7.4m/s t=-60.1C h=-1.0% p=-1.0hPa 403.211 MHz Type=DFM17 ser=22035303 Radiosonde
KA7FVVD220353032022-12-07 00:43:4746.949-116.457926530970Clb=9.7m/s t=-60.4C h=-1.0% p=-1.0hPa 403.211 MHz Type=DFM17 ser=22035303 Radiosonde
K7MTDD220353032022-12-07 00:43:2446.952-116.46412415430828Clb=-2.5m/s t=-61.3C h=-1.0% p=-1.0hPa 403.211 MHz Type=DFM17 ser=22035303 Radiosonde
KA7FVVD220353032022-12-07 00:43:1646.9534-116.46612015430767Clb=-0.6m/s t=-61.6C h=-1.0% p=-1.0hPa 403.211 MHz Type=DFM17 ser=22035303 Radiosonde
K7MTDD220353032022-12-07 00:42:5246.957-116.47413410230613Clb=4.5m/s t=-60.7C h=-1.0% p=-1.0hPa 403.211 MHz Type=DFM17 ser=22035303 Radiosonde
KA7FVVD220353032022-12-07 00:42:4546.9583-116.4771268330560Clb=8.9m/s t=-60.5C h=-1.0% p=-1.0hPa 403.211 MHz Type=DFM17 ser=22035303 Radiosonde
K7MTDD220353032022-12-07 00:42:2446.9622-116.48511815630397Clb=3.0m/s t=-60.7C h=-1.0% p=-1.0hPa 403.211 MHz Type=DFM17 ser=22035303 Radiosonde
KA7FVVD220353032022-12-07 00:42:1646.9634-116.48912017630335Clb=3.1m/s t=-60.5C h=-1.0% p=-1.0hPa 403.211 MHz Type=DFM17 ser=22035303 Radiosonde
K7MTDD220353032022-12-07 00:41:5746.9665-116.49812214330183Clb=11.6m/s t=-60.2C h=-1.0% p=-1.0hPa 403.211 MHz Type=DFM17 ser=22035303 Radiosonde
KA7FVVD220353032022-12-07 00:41:5646.9674-116.5011066930142Clb=-2.8m/s t=-60.1C h=-1.0% p=-1.0hPa 403.211 MHz Type=DFM17 ser=22035303 Radiosonde
K7MTDD220353032022-12-07 00:41:5546.9706-116.51110613030010Clb=5.4m/s t=-59.5C h=-1.0% p=-1.0hPa 403.211 MHz Type=DFM17 ser=22035303 Radiosonde
KA7FVVD220353032022-12-07 00:41:5446.9715-116.51411315229973Clb=2.0m/s t=-59.4C h=-1.0% p=-1.0hPa 403.211 MHz Type=DFM17 ser=22035303 Radiosonde
WB7NNFD220353032022-12-07 00:41:5046.9732-116.5249312429859Clb=4.3m/s t=-60.1C h=-1.0% p=-1.0hPa 403.207 MHz Type=DFM17 ser=22035303 Radiosonde
K7MTDD220353032022-12-07 00:41:4846.9733-116.52410113129853Clb=6.6m/s t=-60.2C h=-1.0% p=-1.0hPa 403.211 MHz Type=DFM17 ser=22035303 Radiosonde
KA7FVVD220353032022-12-07 00:41:4746.9738-116.52710412429814Clb=7.1m/s t=-60.1C h=-1.0% p=-1.0hPa 403.211 MHz Type=DFM17 ser=22035303 Radiosonde
WB7NNFD220353032022-12-07 00:41:4246.9748-116.5348510029747Clb=1.2m/s t=-273.0C h=-1.0% p=-1.0hPa 403.207 MHz Type=DFM17 ser=22035303 Radiosonde
K7MTDD220353032022-12-07 00:41:4046.9753-116.537789329707Clb=11.2m/s t=-60.7C h=-1.0% p=-1.0hPa 403.211 MHz Type=DFM17 ser=22035303 Radiosonde
KA7FVVD220353032022-12-07 00:41:3846.9757-116.54889429672Clb=7.8m/s t=-60.6C h=-1.0% p=-1.0hPa 403.211 MHz Type=DFM17 ser=22035303 Radiosonde
WB7NNFD220353032022-12-07 00:41:3446.9762-116.5471008529578Clb=5.3m/s t=-60.7C h=-1.0% p=-1.0hPa 403.207 MHz Type=DFM17 ser=22035303 Radiosonde
K7MTDD220353032022-12-07 00:41:3346.9765-116.54810713329560Clb=0.6m/s t=-60.7C h=-1.0% p=-1.0hPa 403.211 MHz Type=DFM17 ser=22035303 Radiosonde
WB7NNFD220353032022-12-07 00:41:3246.9785-116.561867629363Clb=-1.4m/s t=-60.3C h=-1.0% p=-1.0hPa 403.207 MHz Type=DFM17 ser=22035303 Radiosonde
KA7FVVD220353032022-12-07 00:41:3146.9786-116.5611149629356Clb=8.7m/s t=-60.4C h=-1.0% p=-1.0hPa 403.211 MHz Type=DFM17 ser=22035303 Radiosonde
WB7NNFD220353032022-12-07 00:41:3046.9798-116.56710711329253Clb=7.8m/s t=-60.5C h=-1.0% p=-1.0hPa 403.207 MHz Type=DFM17 ser=22035303 Radiosonde
WB7NNFD220353032022-12-07 00:41:2946.9828-116.579919128974Clb=0.0m/s t=-60.3C h=-1.0% p=-1.0hPa 403.207 MHz Type=DFM17 ser=22035303 Radiosonde
K7MTDD220353032022-12-07 00:41:2846.9828-116.5781177029001Clb=10.1m/s t=-60.3C h=-1.0% p=-1.0hPa 403.211 MHz Type=DFM17 ser=22035303 Radiosonde
WB7NNFD220353032022-12-07 00:41:2746.9853-116.5871226528764Clb=8.1m/s t=-60.6C h=-1.0% p=-1.0hPa 403.207 MHz Type=DFM17 ser=22035303 Radiosonde
K7MTDD220353032022-12-07 00:41:2646.9854-116.5871308528755Clb=9.3m/s t=-60.6C h=-1.0% p=-1.0hPa 403.211 MHz Type=DFM17 ser=22035303 Radiosonde
WB7NNFD220353032022-12-07 00:41:2546.9868-116.596818928559Clb=1.2m/s t=-62.6C h=-1.0% p=-1.0hPa 403.207 MHz Type=DFM17 ser=22035303 Radiosonde
KA7FVVD220353032022-12-07 00:41:2446.9872-116.5981087628496Clb=6.8m/s t=-63.1C h=-1.0% p=-1.0hPa 403.211 MHz Type=DFM17 ser=22035303 Radiosonde
WB7NNFD220353032022-12-07 00:41:2346.9881-116.602997228399Clb=4.4m/s t=-63.2C h=-1.0% p=-1.0hPa 403.207 MHz Type=DFM17 ser=22035303 Radiosonde
K7MTDD220353032022-12-07 00:41:1546.9905-116.6091275428208Clb=6.4m/s t=-63.9C h=-1.0% p=-1.0hPa 403.211 MHz Type=DFM17 ser=22035303 Radiosonde
KA7FVVD220353032022-12-07 00:41:0646.9911-116.6111316528165Clb=2.1m/s t=-63.8C h=-1.0% p=-1.0hPa 403.211 MHz Type=DFM17 ser=22035303 Radiosonde
WB7NNFD220353032022-12-07 00:40:4246.9916-116.6141215028088Clb=3.4m/s t=-64.2C h=-1.0% p=-1.0hPa 403.207 MHz Type=DFM17 ser=22035303 Radiosonde
K7MTDD220353032022-12-07 00:40:3146.9917-116.6151344628053Clb=3.3m/s t=-64.1C h=-1.0% p=-1.0hPa 403.211 MHz Type=DFM17 ser=22035303 Radiosonde
KA7FVVD220353032022-12-07 00:40:1746.9919-116.6161264428012Clb=2.5m/s t=-63.8C h=-1.0% p=-1.0hPa 403.211 MHz Type=DFM17 ser=22035303 Radiosonde
WB7NNFD220353032022-12-07 00:39:5346.9921-116.619944327923Clb=6.2m/s t=-63.1C h=-1.0% p=-1.0hPa 403.207 MHz Type=DFM17 ser=22035303 Radiosonde
K7MTDD220353032022-12-07 00:39:4346.9921-116.621016127890Clb=5.0m/s t=-62.8C h=-1.0% p=-1.0hPa 403.211 MHz Type=DFM17 ser=22035303 Radiosonde
KA7FVVD220353032022-12-07 00:39:3146.9921-116.622726327840Clb=8.6m/s t=-62.3C h=-1.0% p=-1.0hPa 403.211 MHz Type=DFM17 ser=22035303 Radiosonde
WB7NNFD220353032022-12-07 00:39:0746.9923-116.625594627757Clb=8.8m/s t=-61.6C h=-1.0% p=-1.0hPa 403.207 MHz Type=DFM17 ser=22035303 Radiosonde
K7MTDD220353032022-12-07 00:38:5646.9924-116.6261365227721Clb=1.6m/s t=-61.3C h=-1.0% p=-1.0hPa 403.211 MHz Type=DFM17 ser=22035303 Radiosonde
KA7FVVD220353032022-12-07 00:38:4346.9925-116.6271346527673Clb=2.5m/s t=-61.3C h=-1.0% p=-1.0hPa 403.211 MHz Type=DFM17 ser=22035303 Radiosonde
WB7NNFD220353032022-12-07 00:38:2046.9929-116.63955627571Clb=6.8m/s t=-60.9C h=-1.0% p=-1.0hPa 403.207 MHz Type=DFM17 ser=22035303 Radiosonde
K7MTDD220353032022-12-07 00:38:0846.9931-116.631973727533Clb=8.1m/s t=-60.8C h=-1.0% p=-1.0hPa 403.211 MHz Type=DFM17 ser=22035303 Radiosonde
KA7FVVD220353032022-12-07 00:37:5546.9933-116.6321344127491Clb=4.6m/s t=-60.7C h=-1.0% p=-1.0hPa 403.211 MHz Type=DFM17 ser=22035303 Radiosonde
WB7NNFD220353032022-12-07 00:37:2846.9936-116.634895027376Clb=5.7m/s t=-60.5C h=-1.0% p=-1.0hPa 403.207 MHz Type=DFM17 ser=22035303 Radiosonde
K7MTDD220353032022-12-07 00:37:1646.9938-116.635575027332Clb=5.8m/s t=-60.2C h=-1.0% p=-1.0hPa 403.211 MHz Type=DFM17 ser=22035303 Radiosonde
KA7FVVD220353032022-12-07 00:37:0146.9941-116.635544827278Clb=5.4m/s t=-60.0C h=-1.0% p=-1.0hPa 403.211 MHz Type=DFM17 ser=22035303 Radiosonde
WB7NNFD220353032022-12-07 00:36:3646.9945-116.6371052227170Clb=6.0m/s t=-59.5C h=-1.0% p=-1.0hPa 403.207 MHz Type=DFM17 ser=22035303 Radiosonde
K7MTDD220353032022-12-07 00:36:2446.9947-116.638793027123Clb=3.9m/s t=-59.1C h=-1.0% p=-1.0hPa 403.211 MHz Type=DFM17 ser=22035303 Radiosonde
KA7FVVD220353032022-12-07 00:36:1046.995-116.639784127065Clb=6.4m/s t=-59.0C h=-1.0% p=-1.0hPa 403.211 MHz Type=DFM17 ser=22035303 Radiosonde
WB7NNFD220353032022-12-07 00:35:4546.9952-116.6411173726958Clb=9.9m/s t=-273.0C h=-1.0% p=-1.0hPa 403.207 MHz Type=DFM17 ser=22035303 Radiosonde
K7MTDD220353032022-12-07 00:35:3546.9953-116.642823526913Clb=6.0m/s t=-58.6C h=-1.0% p=-1.0hPa 403.211 MHz Type=DFM17 ser=22035303 Radiosonde
KA7FVVD220353032022-12-07 00:35:1946.9954-116.6431123526866Clb=8.8m/s t=-58.3C h=-1.0% p=-1.0hPa 403.211 MHz Type=DFM17 ser=22035303 Radiosonde
WB7NNFD220353032022-12-07 00:34:5646.9958-116.6451234426758Clb=6.0m/s t=-58.0C h=-1.0% p=-1.0hPa 403.207 MHz Type=DFM17 ser=22035303 Radiosonde
K7MTDD220353032022-12-07 00:34:4646.996-116.6461154826710Clb=4.8m/s t=-57.8C h=-1.0% p=-1.0hPa 403.211 MHz Type=DFM17 ser=22035303 Radiosonde
KA7FVVD220353032022-12-07 00:34:3246.9961-116.6471275426664Clb=4.2m/s t=-57.7C h=-1.0% p=-1.0hPa 403.211 MHz Type=DFM17 ser=22035303 Radiosonde
WB7NNFD220353032022-12-07 00:34:0746.9966-116.651035726557Clb=5.0m/s t=-58.1C h=-1.0% p=-1.0hPa 403.207 MHz Type=DFM17 ser=22035303 Radiosonde
K7MTDD220353032022-12-07 00:33:5546.9968-116.651975626520Clb=4.4m/s t=-58.1C h=-1.0% p=-1.0hPa 403.211 MHz Type=DFM17 ser=22035303 Radiosonde
KA7FVVD220353032022-12-07 00:33:4046.9973-116.6531155626467Clb=8.1m/s t=-57.8C h=-1.0% p=-1.0hPa 403.211 MHz Type=DFM17 ser=22035303 Radiosonde
WB7NNFD220353032022-12-07 00:33:1546.9981-116.6551146326374Clb=7.5m/s t=-57.6C h=-1.0% p=-1.0hPa 403.207 MHz Type=DFM17 ser=22035303 Radiosonde
K7MTDD220353032022-12-07 00:33:0246.9985-116.6561195026333Clb=7.0m/s t=-57.7C h=-1.0% p=-1.0hPa 403.211 MHz Type=DFM17 ser=22035303 Radiosonde
KA7FVVD220353032022-12-07 00:32:4846.9989-116.6581305726285Clb=6.2m/s t=-58.1C h=-1.0% p=-1.0hPa 403.211 MHz Type=DFM17 ser=22035303 Radiosonde
WB7NNFD220353032022-12-07 00:32:1846.9997-116.661044826196Clb=6.9m/s t=-58.0C h=-1.0% p=-1.0hPa 403.207 MHz Type=DFM17 ser=22035303 Radiosonde
K7MTDD220353032022-12-07 00:32:0547-116.6621195026160Clb=5.1m/s t=-57.9C h=-1.0% p=-1.0hPa 403.211 MHz Type=DFM17 ser=22035303 Radiosonde
KA7FVVD220353032022-12-07 00:31:4947.0005-116.6631125226119Clb=5.8m/s t=-58.3C h=-1.0% p=-1.0hPa 403.211 MHz Type=DFM17 ser=22035303 Radiosonde
WB7NNFD220353032022-12-07 00:31:2447.0014-116.666985726042Clb=3.5m/s t=-58.6C h=-1.0% p=-1.0hPa 403.207 MHz Type=DFM17 ser=22035303 Radiosonde
K7MTDD220353032022-12-07 00:31:1247.0018-116.6671145926011Clb=4.5m/s t=-58.5C h=-1.0% p=-1.0hPa 403.211 MHz Type=DFM17 ser=22035303 Radiosonde
KA7FVVD220353032022-12-07 00:30:5847.0022-116.6691286125975Clb=6.9m/s t=-58.4C h=-1.0% p=-1.0hPa 403.211 MHz Type=DFM17 ser=22035303 Radiosonde
WB7NNFD220353032022-12-07 00:30:3447.0028-116.6711284325902Clb=4.4m/s t=-57.7C h=-1.0% p=-1.0hPa 403.207 MHz Type=DFM17 ser=22035303 Radiosonde
K7MTDD220353032022-12-07 00:30:2147.003-116.6721054325869Clb=3.9m/s t=-57.5C h=-1.0% p=-1.0hPa 403.211 MHz Type=DFM17 ser=22035303 Radiosonde
KA7FVVD220353032022-12-07 00:30:0747.0033-116.673943925834Clb=6.5m/s t=-57.4C h=-1.0% p=-1.0hPa 403.211 MHz Type=DFM17 ser=22035303 Radiosonde
WB7NNFD220353032022-12-07 00:29:4247.0035-116.676954125761Clb=4.5m/s t=-57.3C h=-1.0% p=-1.0hPa 403.207 MHz Type=DFM17 ser=22035303 Radiosonde
K7MTDD220353032022-12-07 00:29:2947.0036-116.677593725735Clb=2.9m/s t=-57.2C h=-1.0% p=-1.0hPa 403.211 MHz Type=DFM17 ser=22035303 Radiosonde
KA7FVVD220353032022-12-07 00:29:1547.0037-116.6781013725696Clb=5.3m/s t=-57.0C h=-1.0% p=-1.0hPa 403.211 MHz Type=DFM17 ser=22035303 Radiosonde
WB7NNFD220353032022-12-07 00:28:5047.004-116.681255425630Clb=4.1m/s t=-57.0C h=-1.0% p=-1.0hPa 403.207 MHz Type=DFM17 ser=22035303 Radiosonde
K7MTDD220353032022-12-07 00:28:3747.0043-116.6811304625602Clb=2.2m/s t=-57.1C h=-1.0% p=-1.0hPa 403.211 MHz Type=DFM17 ser=22035303 Radiosonde
KA7FVVD220353032022-12-07 00:28:2247.0047-116.6831265425572Clb=3.1m/s t=-57.0C h=-1.0% p=-1.0hPa 403.211 MHz Type=DFM17 ser=22035303 Radiosonde
WB7NNFD220353032022-12-07 00:27:5947.0055-116.6861075425503Clb=5.1m/s t=-56.5C h=-1.0% p=-1.0hPa 403.207 MHz Type=DFM17 ser=22035303 Radiosonde
K7MTDD220353032022-12-07 00:27:5247.0057-116.6871135725467Clb=2.2m/s t=-56.4C h=-1.0% p=-1.0hPa 403.211 MHz Type=DFM17 ser=22035303 Radiosonde
KA7FVVD220353032022-12-07 00:27:4447.006-116.6881005725440Clb=2.5m/s t=-56.4C h=-1.0% p=-1.0hPa 403.211 MHz Type=DFM17 ser=22035303 Radiosonde
KA7FVVD220353032022-12-07 00:27:4347.0297-116.7451018524203Clb=3.3m/s t=-59.6C h=-1.0% p=-1.0hPa 403.211 MHz Type=DFM17 ser=22035303 Radiosonde
WB7NNFD220353032022-12-07 00:27:4247.0297-116.75755624123Clb=6.2m/s t=-60.1C h=-1.0% p=-1.0hPa 403.207 MHz Type=DFM17 ser=22035303 Radiosonde
KA7FVVD220353032022-12-07 00:27:4147.0297-116.753986924051Clb=5.9m/s t=-59.5C h=-1.0% p=-1.0hPa 403.211 MHz Type=DFM17 ser=22035303 Radiosonde
WB7NNFD220353032022-12-07 00:27:2447.0297-116.757854623976Clb=7.6m/s t=-59.0C h=-1.0% p=-1.0hPa 403.207 MHz Type=DFM17 ser=22035303 Radiosonde
K7MTDD220353032022-12-07 00:27:1647.0297-116.759796323944Clb=7.1m/s t=-58.8C h=-1.0% p=-1.0hPa 403.211 MHz Type=DFM17 ser=22035303 Radiosonde
KA7FVVD220353032022-12-07 00:27:0547.0298-116.76746523894Clb=6.0m/s t=-58.3C h=-1.0% p=-1.0hPa 403.211 MHz Type=DFM17 ser=22035303 Radiosonde
WB7NNFD220353032022-12-07 00:27:0147.03-116.764583723802Clb=3.2m/s t=-57.5C h=-1.0% p=-1.0hPa 403.207 MHz Type=DFM17 ser=22035303 Radiosonde
K7MTDD220353032022-12-07 00:27:0047.0303-116.765924623763Clb=7.6m/s t=-57.1C h=-1.0% p=-1.0hPa 403.211 MHz Type=DFM17 ser=22035303 Radiosonde
WB7NNFD220353032022-12-07 00:26:5947.0318-116.771169123589Clb=9.8m/s t=-56.3C h=-1.0% p=-1.0hPa 403.207 MHz Type=DFM17 ser=22035303 Radiosonde
K7MTDD220353032022-12-07 00:26:5847.0323-116.7721378023542Clb=6.0m/s t=-56.0C h=-1.0% p=-1.0hPa 403.211 MHz Type=DFM17 ser=22035303 Radiosonde
WB7NNFD220353032022-12-07 00:26:5747.0346-116.7771256323382Clb=7.7m/s t=-56.5C h=-1.0% p=-1.0hPa 403.211 MHz Type=DFM17 ser=22035303 Radiosonde
KA7FVVD220353032022-12-07 00:26:5447.0366-116.781328023278Clb=7.6m/s t=-56.3C h=-1.0% p=-1.0hPa 403.211 MHz Type=DFM17 ser=22035303 Radiosonde
WB7NNFD220353032022-12-07 00:26:3347.0391-116.7831438923166Clb=6.6m/s t=-55.9C h=-1.0% p=-1.0hPa 403.211 MHz Type=DFM17 ser=22035303 Radiosonde
KA7FVVD220353032022-12-07 00:26:0547.0416-116.7871258323058Clb=6.8m/s t=-56.1C h=-1.0% p=-1.0hPa 403.211 MHz Type=DFM17 ser=22035303 Radiosonde
WB7NNFD220353032022-12-07 00:25:4047.0441-116.79112110022947Clb=9.1m/s t=-56.5C h=-1.0% p=-1.0hPa 403.207 MHz Type=DFM17 ser=22035303 Radiosonde
KA7FVVD220353032022-12-07 00:25:1447.0461-116.79511611122851Clb=6.0m/s t=-57.0C h=-1.0% p=-1.0hPa 403.211 MHz Type=DFM17 ser=22035303 Radiosonde
WB7NNFD220353032022-12-07 00:24:4947.048-116.7991128022758Clb=4.5m/s t=-57.5C h=-1.0% p=-1.0hPa 403.211 MHz Type=DFM17 ser=22035303 Radiosonde
KA7FVVD220353032022-12-07 00:24:2147.0499-116.8021318122678Clb=5.9m/s t=-57.4C h=-1.0% p=-1.0hPa 403.211 MHz Type=DFM17 ser=22035303 Radiosonde
WB7NNFD220353032022-12-07 00:23:5547.052-116.8051218122592Clb=3.9m/s t=-58.0C h=-1.0% p=-1.0hPa 403.207 MHz Type=DFM17 ser=22035303 Radiosonde
KA7FVVD220353032022-12-07 00:23:2747.0542-116.8081347822525Clb=5.5m/s t=-57.7C h=-1.0% p=-1.0hPa 403.211 MHz Type=DFM17 ser=22035303 Radiosonde
WB7NNFD220353032022-12-07 00:22:5947.0565-116.8111507222461Clb=3.4m/s t=-57.4C h=-1.0% p=-1.0hPa 403.207 MHz Type=DFM17 ser=22035303 Radiosonde
K7MTDD220353032022-12-07 00:22:4647.0575-116.8121398322433Clb=3.0m/s t=-57.3C h=-1.0% p=-1.0hPa 403.211 MHz Type=DFM17 ser=22035303 Radiosonde
KA7FVVD220353032022-12-07 00:22:3047.0586-116.8141318522403Clb=5.9m/s t=-57.3C h=-1.0% p=-1.0hPa 403.211 MHz Type=DFM17 ser=22035303 Radiosonde
WB7NNFD220353032022-12-07 00:22:0447.061-116.8181467822338Clb=5.0m/s t=-57.5C h=-1.0% p=-1.0hPa 403.207 MHz Type=DFM17 ser=22035303 Radiosonde
K7MTDD220353032022-12-07 00:21:5347.0623-116.821358122308Clb=5.1m/s t=-57.7C h=-1.0% p=-1.0hPa 403.211 MHz Type=DFM17 ser=22035303 Radiosonde
KA7FVVD220353032022-12-07 00:21:3847.0634-116.8211318322278Clb=3.8m/s t=-57.9C h=-1.0% p=-1.0hPa 403.211 MHz Type=DFM17 ser=22035303 Radiosonde
WB7NNFD220353032022-12-07 00:21:1247.0654-116.8251296322222Clb=4.5m/s t=-58.4C h=-1.0% p=-1.0hPa 403.207 MHz Type=DFM17 ser=22035303 Radiosonde
K7MTDD220353032022-12-07 00:21:0047.0662-116.8261307822195Clb=3.0m/s t=-59.0C h=-1.0% p=-1.0hPa 403.211 MHz Type=DFM17 ser=22035303 Radiosonde
KA7FVVD220353032022-12-07 00:20:4547.0671-116.8291178722157Clb=3.1m/s t=-58.9C h=-1.0% p=-1.0hPa 403.211 MHz Type=DFM17 ser=22035303 Radiosonde
WB7NNFD220353032022-12-07 00:20:2047.0685-116.8321257422091Clb=4.5m/s t=-58.6C h=-1.0% p=-1.0hPa 403.207 MHz Type=DFM17 ser=22035303 Radiosonde
K7MTDD220353032022-12-07 00:20:0847.0692-116.8341195422060Clb=1.9m/s t=-58.6C h=-1.0% p=-1.0hPa 403.211 MHz Type=DFM17 ser=22035303 Radiosonde
KA7FVVD220353032022-12-07 00:19:5247.07-116.8361097822011Clb=4.3m/s t=-59.2C h=-1.0% p=-1.0hPa 403.211 MHz Type=DFM17 ser=22035303 Radiosonde
WB7NNFD220353032022-12-07 00:19:2647.0712-116.8391177021940Clb=6.1m/s t=-58.7C h=-1.0% p=-1.0hPa 403.207 MHz Type=DFM17 ser=22035303 Radiosonde
K7MTDD220353032022-12-07 00:19:1447.0717-116.8411195421903Clb=4.0m/s t=-58.5C h=-1.0% p=-1.0hPa 403.211 MHz Type=DFM17 ser=22035303 Radiosonde
KA7FVVD220353032022-12-07 00:18:5947.0723-116.8431057221856Clb=6.5m/s t=-58.2C h=-1.0% p=-1.0hPa 403.211 MHz Type=DFM17 ser=22035303 Radiosonde
WB7NNFD220353032022-12-07 00:18:3447.0733-116.8461278121776Clb=4.1m/s t=-57.8C h=-1.0% p=-1.0hPa 403.207 MHz Type=DFM17 ser=22035303 Radiosonde
K7MTDD220353032022-12-07 00:18:2047.0739-116.8481314121726Clb=6.2m/s t=-57.5C h=-1.0% p=-1.0hPa 403.211 MHz Type=DFM17 ser=22035303 Radiosonde
KA7FVVD220353032022-12-07 00:18:0547.0743-116.8491273021688Clb=4.5m/s t=-57.5C h=-1.0% p=-1.0hPa 403.211 MHz Type=DFM17 ser=22035303 Radiosonde
WB7NNFD220353032022-12-07 00:17:3947.0754-116.8511325721610Clb=4.7m/s t=-57.8C h=-1.0% p=-1.0hPa 403.207 MHz Type=DFM17 ser=22035303 Radiosonde
K7MTDD220353032022-12-07 00:17:2547.0761-116.8521335621579Clb=2.7m/s t=-57.6C h=-1.0% p=-1.0hPa 403.211 MHz Type=DFM17 ser=22035303 Radiosonde
KA7FVVD220353032022-12-07 00:17:1147.0769-116.8531294821545Clb=5.5m/s t=-57.4C h=-1.0% p=-1.0hPa 403.211 MHz Type=DFM17 ser=22035303 Radiosonde
WB7NNFD220353032022-12-07 00:16:4447.0784-116.8551535221470Clb=3.1m/s t=-57.4C h=-1.0% p=-1.0hPa 403.207 MHz Type=DFM17 ser=22035303 Radiosonde
K7MTDD220353032022-12-07 00:16:3147.0792-116.8561515421441Clb=4.3m/s t=-57.4C h=-1.0% p=-1.0hPa 403.211 MHz Type=DFM17 ser=22035303 Radiosonde
KA7FVVD220353032022-12-07 00:16:1547.0802-116.8571467221407Clb=3.9m/s t=-57.4C h=-1.0% p=-1.0hPa 403.211 MHz Type=DFM17 ser=22035303 Radiosonde
WB7NNFD220353032022-12-07 00:15:5147.0826-116.8591537821330Clb=4.3m/s t=-57.0C h=-1.0% p=-1.0hPa 403.207 MHz Type=DFM17 ser=22035303 Radiosonde
K7MTDD220353032022-12-07 00:15:3847.0834-116.861468521304Clb=4.6m/s t=-56.9C h=-1.0% p=-1.0hPa 403.211 MHz Type=DFM17 ser=22035303 Radiosonde
KA7FVVD220353032022-12-07 00:15:2447.0847-116.8611488321268Clb=4.8m/s t=-57.0C h=-1.0% p=-1.0hPa 403.211 MHz Type=DFM17 ser=22035303 Radiosonde
WB7NNFD220353032022-12-07 00:14:5947.0873-116.8631498121198Clb=6.0m/s t=-57.4C h=-1.0% p=-1.0hPa 403.207 MHz Type=DFM17 ser=22035303 Radiosonde
KA7FVVD220353032022-12-07 00:14:3147.0898-116.8661518921130Clb=4.2m/s t=-58.0C h=-1.0% p=-1.0hPa 403.211 MHz Type=DFM17 ser=22035303 Radiosonde
K7MTDD220353032022-12-07 00:13:5347.0937-116.871378321013Clb=4.8m/s t=-58.7C h=-1.0% p=-1.0hPa 403.211 MHz Type=DFM17 ser=22035303 Radiosonde
KA7FVVD220353032022-12-07 00:13:3847.0946-116.8711418020985Clb=5.7m/s t=-58.6C h=-1.0% p=-1.0hPa 403.211 MHz Type=DFM17 ser=22035303 Radiosonde
WB7NNFD220353032022-12-07 00:13:1247.0976-116.8741317620896Clb=3.5m/s t=-58.7C h=-1.0% p=-1.0hPa 403.207 MHz Type=DFM17 ser=22035303 Radiosonde
KA7FVVD220353032022-12-07 00:12:4447.0995-116.8771418520841Clb=5.7m/s t=-58.8C h=-1.0% p=-1.0hPa 403.211 MHz Type=DFM17 ser=22035303 Radiosonde
K7MTDD220353032022-12-07 00:12:3447.1037-116.8811449320724Clb=4.7m/s t=-60.0C h=-1.0% p=-1.0hPa 403.211 MHz Type=DFM17 ser=22035303 Radiosonde
KA7FVVD220353032022-12-07 00:12:1847.1045-116.8821449320703Clb=2.5m/s t=-60.1C h=-1.0% p=-1.0hPa 403.211 MHz Type=DFM17 ser=22035303 Radiosonde
WB7NNFD220353032022-12-07 00:11:5747.1077-116.8861399420626Clb=4.5m/s t=-60.3C h=-1.0% p=-1.0hPa 403.207 MHz Type=DFM17 ser=22035303 Radiosonde
K7MTDD220353032022-12-07 00:11:4947.1087-116.88813810220609Clb=4.5m/s t=-60.5C h=-1.0% p=-1.0hPa 403.211 MHz Type=DFM17 ser=22035303 Radiosonde
KA7FVVD220353032022-12-07 00:11:4147.1104-116.8913210020576Clb=3.7m/s t=-60.8C h=-1.0% p=-1.0hPa 403.211 MHz Type=DFM17 ser=22035303 Radiosonde
WB7NNFD220353032022-12-07 00:11:2947.1132-116.89412010220512Clb=5.0m/s t=-60.8C h=-1.0% p=-1.0hPa 403.207 MHz Type=DFM17 ser=22035303 Radiosonde
KA7FVVD220353032022-12-07 00:11:1147.1155-116.8981288520457Clb=5.1m/s t=-60.4C h=-1.0% p=-1.0hPa 403.211 MHz Type=DFM17 ser=22035303 Radiosonde
WB7NNFD220353032022-12-07 00:10:5647.1179-116.9021319320384Clb=4.2m/s t=-60.0C h=-1.0% p=-1.0hPa 403.207 MHz Type=DFM17 ser=22035303 Radiosonde
KA7FVVD220353032022-12-07 00:10:5147.1199-116.90712610020303Clb=5.6m/s t=-59.8C h=-1.0% p=-1.0hPa 403.211 MHz Type=DFM17 ser=22035303 Radiosonde
WB7NNFD220353032022-12-07 00:10:4547.1218-116.9111179120215Clb=6.8m/s t=-59.7C h=-1.0% p=-1.0hPa 403.207 MHz Type=DFM17 ser=22035303 Radiosonde
K7MTDD220353032022-12-07 00:10:4347.1225-116.9131169120175Clb=4.8m/s t=-59.8C h=-1.0% p=-1.0hPa 403.211 MHz Type=DFM17 ser=22035303 Radiosonde
KA7FVVD220353032022-12-07 00:10:4047.1231-116.9151126520126Clb=6.1m/s t=-59.9C h=-1.0% p=-1.0hPa 403.211 MHz Type=DFM17 ser=22035303 Radiosonde
WB7NNFD220353032022-12-07 00:10:2347.1243-116.921015620020Clb=5.2m/s t=-59.4C h=-1.0% p=-1.0hPa 403.207 MHz Type=DFM17 ser=22035303 Radiosonde
K7MTDD220353032022-12-07 00:10:1847.1245-116.9211146919996Clb=6.8m/s t=-59.3C h=-1.0% p=-1.0hPa 403.211 MHz Type=DFM17 ser=22035303 Radiosonde
KA7FVVD220353032022-12-07 00:10:0747.125-116.9231187619941Clb=6.6m/s t=-59.5C h=-1.0% p=-1.0hPa 403.211 MHz Type=DFM17 ser=22035303 Radiosonde
WB7NNFD220353032022-12-07 00:10:0147.1263-116.9261156719847Clb=6.0m/s t=-59.1C h=-1.0% p=-1.0hPa 403.207 MHz Type=DFM17 ser=22035303 Radiosonde
K7MTDD220353032022-12-07 00:10:0047.1267-116.9281186519813Clb=5.8m/s t=-59.0C h=-1.0% p=-1.0hPa 403.211 MHz Type=DFM17 ser=22035303 Radiosonde
KA7FVVD220353032022-12-07 00:09:5847.1275-116.931137819759Clb=6.0m/s t=-58.8C h=-1.0% p=-1.0hPa 403.211 MHz Type=DFM17 ser=22035303 Radiosonde
K7MTDD220353032022-12-07 00:09:5347.129-116.9351137619626Clb=5.7m/s t=-58.1C h=-1.0% p=-1.0hPa 403.211 MHz Type=DFM17 ser=22035303 Radiosonde
KA7FVVD220353032022-12-07 00:09:4947.1296-116.9371206719571Clb=5.3m/s t=-58.2C h=-1.0% p=-1.0hPa 403.211 MHz Type=DFM17 ser=22035303 Radiosonde
KA7FVVD220353032022-12-07 00:09:4747.1321-116.9461207019381Clb=6.1m/s t=-57.7C h=-1.0% p=-1.0hPa 403.211 MHz Type=DFM17 ser=22035303 Radiosonde
WB7NNFD220353032022-12-07 00:09:4647.1335-116.951176919284Clb=6.6m/s t=-57.1C h=-1.0% p=-1.0hPa 403.207 MHz Type=DFM17 ser=22035303 Radiosonde
KA7FVVD220353032022-12-07 00:09:4547.1347-116.9531287219213Clb=5.3m/s t=-57.0C h=-1.0% p=-1.0hPa 403.211 MHz Type=DFM17 ser=22035303 Radiosonde
WB7NNFD220353032022-12-07 00:09:4447.136-116.9561227419128Clb=6.3m/s t=-57.4C h=-1.0% p=-1.0hPa 403.207 MHz Type=DFM17 ser=22035303 Radiosonde
WB7NNFD220353032022-12-07 00:09:4347.1392-116.9631306518964Clb=5.2m/s t=-57.3C h=-1.0% p=-1.0hPa 403.207 MHz Type=DFM17 ser=22035303 Radiosonde
K7MTDD220353032022-12-07 00:09:4247.14-116.9641297218935Clb=3.0m/s t=-57.2C h=-1.0% p=-1.0hPa 403.211 MHz Type=DFM17 ser=22035303 Radiosonde
WB7NNFD220353032022-12-07 00:09:4147.1438-116.9681478518812Clb=5.7m/s t=-57.1C h=-1.0% p=-1.0hPa 403.207 MHz Type=DFM17 ser=22035303 Radiosonde
KA7FVVD220353032022-12-07 00:09:4047.1463-116.9711499118742Clb=5.7m/s t=-57.0C h=-1.0% p=-1.0hPa 403.211 MHz Type=DFM17 ser=22035303 Radiosonde
WB7NNFD220353032022-12-07 00:09:2947.1492-116.9741468118665Clb=3.0m/s t=-57.2C h=-1.0% p=-1.0hPa 403.207 MHz Type=DFM17 ser=22035303 Radiosonde
K7MTDD220353032022-12-07 00:09:2047.1502-116.9751438718640Clb=3.2m/s t=-57.1C h=-1.0% p=-1.0hPa 403.211 MHz Type=DFM17 ser=22035303 Radiosonde
KA7FVVD220353032022-12-07 00:09:0447.1516-116.9771327618603Clb=3.4m/s t=-57.1C h=-1.0% p=-1.0hPa 403.211 MHz Type=DFM17 ser=22035303 Radiosonde
WB7NNFD220353032022-12-07 00:08:4047.1538-116.981298118538Clb=5.4m/s t=-57.1C h=-1.0% p=-1.0hPa 403.207 MHz Type=DFM17 ser=22035303 Radiosonde
K7MTDD220353032022-12-07 00:08:3047.1548-116.9811197818506Clb=5.5m/s t=-56.9C h=-1.0% p=-1.0hPa 403.211 MHz Type=DFM17 ser=22035303 Radiosonde
KA7FVVD220353032022-12-07 00:08:1547.1558-116.9831308118471Clb=5.7m/s t=-56.6C h=-1.0% p=-1.0hPa 403.211 MHz Type=DFM17 ser=22035303 Radiosonde
WB7NNFD220353032022-12-07 00:07:5247.1578-116.9871278918397Clb=5.4m/s t=-56.8C h=-1.0% p=-1.0hPa 403.207 MHz Type=DFM17 ser=22035303 Radiosonde
K7MTDD220353032022-12-07 00:07:4047.1588-116.9891338018364Clb=3.6m/s t=-56.7C h=-1.0% p=-1.0hPa 403.211 MHz Type=DFM17 ser=22035303 Radiosonde
KA7FVVD220353032022-12-07 00:07:2447.16-116.9911278518327Clb=3.5m/s t=-56.6C h=-1.0% p=-1.0hPa 403.211 MHz Type=DFM17 ser=22035303 Radiosonde
WB7NNFD220353032022-12-07 00:06:5947.1624-116.9951328918249Clb=4.2m/s t=-56.5C h=-1.0% p=-1.0hPa 403.207 MHz Type=DFM17 ser=22035303 Radiosonde
K7MTDD220353032022-12-07 00:06:4847.1634-116.9961418918214Clb=6.1m/s t=-56.4C h=-1.0% p=-1.0hPa 403.211 MHz Type=DFM17 ser=22035303 Radiosonde
KA7FVVD220353032022-12-07 00:06:3247.1647-116.9981398318176Clb=4.8m/s t=-56.4C h=-1.0% p=-1.0hPa 403.211 MHz Type=DFM17 ser=22035303 Radiosonde
WB7NNFD220353032022-12-07 00:06:0647.1671-117.0021358718095Clb=5.5m/s t=-56.9C h=-1.0% p=-1.0hPa 403.211 MHz Type=DFM17 ser=22035303 Radiosonde
K7MTDD220353032022-12-07 00:05:5447.1682-117.0031378918060Clb=4.5m/s t=-57.0C h=-1.0% p=-1.0hPa 403.211 MHz Type=DFM17 ser=22035303 Radiosonde
KA7FVVD220353032022-12-07 00:05:3847.1693-117.0051278918020Clb=2.9m/s t=-57.0C h=-1.0% p=-1.0hPa 403.211 MHz Type=DFM17 ser=22035303 Radiosonde
WB7NNFD220353032022-12-07 00:05:1447.172-117.0081358517938Clb=4.7m/s t=-57.2C h=-1.0% p=-1.0hPa 403.211 MHz Type=DFM17 ser=22035303 Radiosonde
K7MTDD220353032022-12-07 00:05:0147.173-117.011328117909Clb=5.2m/s t=-57.4C h=-1.0% p=-1.0hPa 403.211 MHz Type=DFM17 ser=22035303 Radiosonde
KA7FVVD220353032022-12-07 00:04:4747.1743-117.0121378117862Clb=6.0m/s t=-57.6C h=-1.0% p=-1.0hPa 403.211 MHz Type=DFM17 ser=22035303 Radiosonde
WB7NNFD220353032022-12-07 00:04:2447.1766-117.0141487817786Clb=4.7m/s t=-57.6C h=-1.0% p=-1.0hPa 403.207 MHz Type=DFM17 ser=22035303 Radiosonde
K7MTDD220353032022-12-07 00:04:1247.1778-117.0161467617752Clb=5.0m/s t=-57.5C h=-1.0% p=-1.0hPa 403.211 MHz Type=DFM17 ser=22035303 Radiosonde
KA7FVVD220353032022-12-07 00:03:5747.179-117.0171419317715Clb=3.6m/s t=-57.8C h=-1.0% p=-1.0hPa 403.211 MHz Type=DFM17 ser=22035303 Radiosonde
WB7NNFD220353032022-12-07 00:03:3347.1813-117.021338317638Clb=5.1m/s t=-57.7C h=-1.0% p=-1.0hPa 403.211 MHz Type=DFM17 ser=22035303 Radiosonde
K7MTDD220353032022-12-07 00:03:2047.1826-117.0221437817601Clb=6.1m/s t=-57.5C h=-1.0% p=-1.0hPa 403.211 MHz Type=DFM17 ser=22035303 Radiosonde
KA7FVVD220353032022-12-07 00:03:0747.1839-117.0231388717561Clb=6.9m/s t=-57.4C h=-1.0% p=-1.0hPa 403.211 MHz Type=DFM17 ser=22035303 Radiosonde
WB7NNFD220353032022-12-07 00:02:4347.1866-117.0261529317489Clb=3.5m/s t=-57.5C h=-1.0% p=-1.0hPa 403.211 MHz Type=DFM17 ser=22035303 Radiosonde
K7MTDD220353032022-12-07 00:02:3147.1879-117.0271458717457Clb=5.4m/s t=-57.6C h=-1.0% p=-1.0hPa 403.211 MHz Type=DFM17 ser=22035303 Radiosonde
KA7FVVD220353032022-12-07 00:02:1647.1894-117.0281478717423Clb=4.8m/s t=-57.4C h=-1.0% p=-1.0hPa 403.211 MHz Type=DFM17 ser=22035303 Radiosonde
WB7NNFD220353032022-12-07 00:01:4947.1924-117.0311429117357Clb=3.3m/s t=-57.0C h=-1.0% p=-1.0hPa 403.211 MHz Type=DFM17 ser=22035303 Radiosonde
K7MTDD220353032022-12-07 00:01:3747.1937-117.0321498917329Clb=5.1m/s t=-57.0C h=-1.0% p=-1.0hPa 403.211 MHz Type=DFM17 ser=22035303 Radiosonde
KA7FVVD220353032022-12-07 00:01:2247.1957-117.0341389417292Clb=2.8m/s t=-56.8C h=-1.0% p=-1.0hPa 403.211 MHz Type=DFM17 ser=22035303 Radiosonde
WB7NNFD220353032022-12-07 00:00:5747.1985-117.0371389817235Clb=4.4m/s t=-56.6C h=-1.0% p=-1.0hPa 403.211 MHz Type=DFM17 ser=22035303 Radiosonde
K7MTDD220353032022-12-07 00:00:4247.1996-117.0381469317212Clb=3.9m/s t=-56.7C h=-1.0% p=-1.0hPa 403.211 MHz Type=DFM17 ser=22035303 Radiosonde
KA7FVVD220353032022-12-07 00:00:2947.2013-117.041489417178Clb=4.5m/s t=-56.7C h=-1.0% p=-1.0hPa 403.211 MHz Type=DFM17 ser=22035303 Radiosonde
WB7NNFD220353032022-12-07 00:00:0247.2041-117.0431408317121Clb=3.2m/s t=-57.0C h=-1.0% p=-1.0hPa 403.211 MHz Type=DFM17 ser=22035303 Radiosonde
K7MTDD220353032022-12-06 23:59:5547.2055-117.0451399617095Clb=3.9m/s t=-57.0C h=-1.0% p=-1.0hPa 403.211 MHz Type=DFM17 ser=22035303 Radiosonde
KA7FVVD220353032022-12-06 23:59:4747.2072-117.0471359417056Clb=4.4m/s t=-57.1C h=-1.0% p=-1.0hPa 403.211 MHz Type=DFM17 ser=22035303 Radiosonde
WB7NNFD220353032022-12-06 23:59:3947.2099-117.05113410216986Clb=4.0m/s t=-57.3C h=-1.0% p=-1.0hPa 403.211 MHz Type=DFM17 ser=22035303 Radiosonde
KA7FVVD220353032022-12-06 23:59:3847.2122-117.05611910616908Clb=3.5m/s t=-57.2C h=-1.0% p=-1.0hPa 403.211 MHz Type=DFM17 ser=22035303 Radiosonde
KA7FVVD220353032022-12-06 23:59:3747.2159-117.0661199816754Clb=3.9m/s t=-57.3C h=-1.0% p=-1.0hPa 403.211 MHz Type=DFM17 ser=22035303 Radiosonde
WB7NNFD220353032022-12-06 23:59:3647.2172-117.0711089416682Clb=5.5m/s t=-57.3C h=-1.0% p=-1.0hPa 403.211 MHz Type=DFM17 ser=22035303 Radiosonde
K7MTDD220353032022-12-06 23:59:3547.2178-117.07311110616648Clb=3.8m/s t=-57.3C h=-1.0% p=-1.0hPa 403.211 MHz Type=DFM17 ser=22035303 Radiosonde
KA7FVVD220353032022-12-06 23:59:3447.2186-117.0771119816597Clb=4.4m/s t=-57.0C h=-1.0% p=-1.0hPa 403.211 MHz Type=DFM17 ser=22035303 Radiosonde
WB7NNFD220353032022-12-06 23:59:3047.2196-117.0811058016521Clb=4.8m/s t=-57.1C h=-1.0% p=-1.0hPa 403.211 MHz Type=DFM17 ser=22035303 Radiosonde
KA7FVVD220353032022-12-06 23:59:2947.2205-117.0861078016444Clb=4.9m/s t=-56.7C h=-1.0% p=-1.0hPa 403.211 MHz Type=DFM17 ser=22035303 Radiosonde
WB7NNFD220353032022-12-06 23:59:1347.2214-117.091108516369Clb=5.4m/s t=-56.5C h=-1.0% p=-1.0hPa 403.211 MHz Type=DFM17 ser=22035303 Radiosonde
K7MTDD220353032022-12-06 23:59:0447.222-117.0931129316323Clb=4.4m/s t=-56.6C h=-1.0% p=-1.0hPa 403.211 MHz Type=DFM17 ser=22035303 Radiosonde
KA7FVVD220353032022-12-06 23:59:0147.2226-117.0951088316289Clb=5.2m/s t=-56.4C h=-1.0% p=-1.0hPa 403.211 MHz Type=DFM17 ser=22035303 Radiosonde
WB7NNFD220353032022-12-06 23:59:0047.224-117.11208316212Clb=5.8m/s t=-56.1C h=-1.0% p=-1.0hPa 403.211 MHz Type=DFM17 ser=22035303 Radiosonde
K7MTDD220353032022-12-06 23:58:5947.2247-117.1021148716179Clb=5.3m/s t=-56.0C h=-1.0% p=-1.0hPa 403.211 MHz Type=DFM17 ser=22035303 Radiosonde
WB7NNFD220353032022-12-06 23:58:5847.2269-117.1081208016075Clb=5.5m/s t=-55.3C h=-1.0% p=-1.0hPa 403.207 MHz Type=DFM17 ser=22035303 Radiosonde
K7MTDD220353032022-12-06 23:58:5647.2277-117.1111188516039Clb=5.7m/s t=-55.1C h=-1.0% p=-1.0hPa 403.211 MHz Type=DFM17 ser=22035303 Radiosonde
KA7FVVD220353032022-12-06 23:58:4947.2286-117.1131257816004Clb=3.6m/s t=-55.0C h=-1.0% p=-1.0hPa 403.211 MHz Type=DFM17 ser=22035303 Radiosonde
WB7NNFD220353032022-12-06 23:58:2547.2307-117.1171238915934Clb=5.0m/s t=-55.2C h=-1.0% p=-1.0hPa 403.207 MHz Type=DFM17 ser=22035303 Radiosonde
K7MTDD220353032022-12-06 23:58:1347.2313-117.1191207815910Clb=4.3m/s t=-55.2C h=-1.0% p=-1.0hPa 403.211 MHz Type=DFM17 ser=22035303 Radiosonde
KA7FVVD220353032022-12-06 23:57:5947.2325-117.1221168915874Clb=3.9m/s t=-55.4C h=-1.0% p=-1.0hPa 403.211 MHz Type=DFM17 ser=22035303 Radiosonde
WB7NNFD220353032022-12-06 23:57:3247.2343-117.1261249315812Clb=3.4m/s t=-55.9C h=-1.0% p=-1.0hPa 403.207 MHz Type=DFM17 ser=22035303 Radiosonde
K7MTDD220353032022-12-06 23:57:1947.2351-117.1281248515780Clb=3.9m/s t=-55.9C h=-1.0% p=-1.0hPa 403.211 MHz Type=DFM17 ser=22035303 Radiosonde
KA7FVVD220353032022-12-06 23:57:0347.2361-117.131229415745Clb=4.6m/s t=-56.3C h=-1.0% p=-1.0hPa 403.211 MHz Type=DFM17 ser=22035303 Radiosonde
WB7NNFD220353032022-12-06 23:56:3847.2382-117.1351198915665Clb=3.2m/s t=-56.7C h=-1.0% p=-1.0hPa 403.207 MHz Type=DFM17 ser=22035303 Radiosonde
KA7FVVD220353032022-12-06 23:56:1047.2397-117.1391188915599Clb=4.1m/s t=-56.7C h=-1.0% p=-1.0hPa 403.211 MHz Type=DFM17 ser=22035303 Radiosonde
WB7NNFD220353032022-12-06 23:55:4747.2414-117.1441177615512Clb=4.0m/s t=-56.3C h=-1.0% p=-1.0hPa 403.207 MHz Type=DFM17 ser=22035303 Radiosonde
KA7FVVD220353032022-12-06 23:55:2147.2429-117.1471258015442Clb=4.7m/s t=-56.5C h=-1.0% p=-1.0hPa 403.211 MHz Type=DFM17 ser=22035303 Radiosonde
WB7NNFD220353032022-12-06 23:54:5747.2445-117.1511267415360Clb=4.5m/s t=-56.2C h=-1.0% p=-1.0hPa 403.207 MHz Type=DFM17 ser=22035303 Radiosonde
KA7FVVD220353032022-12-06 23:54:3347.2465-117.1551208115268Clb=5.3m/s t=-56.1C h=-1.0% p=-1.0hPa 403.211 MHz Type=DFM17 ser=22035303 Radiosonde
WB7NNFD220353032022-12-06 23:54:0947.2484-117.1591317615186Clb=4.4m/s t=-55.8C h=-1.0% p=-1.0hPa 403.207 MHz Type=DFM17 ser=22035303 Radiosonde
KA7FVVD220353032022-12-06 23:53:4347.2507-117.1621378515103Clb=4.2m/s t=-56.0C h=-1.0% p=-1.0hPa 403.211 MHz Type=DFM17 ser=22035303 Radiosonde
WB7NNFD220353032022-12-06 23:53:1947.2529-117.1651299615021Clb=4.5m/s t=-55.7C h=-1.0% p=-1.0hPa 403.207 MHz Type=DFM17 ser=22035303 Radiosonde
KA7FVVD220353032022-12-06 23:52:5247.2554-117.171308514940Clb=5.6m/s t=-56.0C h=-1.0% p=-1.0hPa 403.211 MHz Type=DFM17 ser=22035303 Radiosonde
WB7NNFD220353032022-12-06 23:52:2847.2575-117.1731339314864Clb=3.9m/s t=-55.7C h=-1.0% p=-1.0hPa 403.211 MHz Type=DFM17 ser=22035303 Radiosonde
KA7FVVD220353032022-12-06 23:52:0047.2596-117.1781209114783Clb=5.7m/s t=-56.6C h=-1.0% p=-1.0hPa 403.211 MHz Type=DFM17 ser=22035303 Radiosonde
WB7NNFD220353032022-12-06 23:51:4547.2617-117.1821219314715Clb=5.2m/s t=-56.5C h=-1.0% p=-1.0hPa 403.207 MHz Type=DFM17 ser=22035303 Radiosonde
KA7FVVD220353032022-12-06 23:51:2947.2639-117.1861299114648Clb=5.0m/s t=-56.7C h=-1.0% p=-1.0hPa 403.211 MHz Type=DFM17 ser=22035303 Radiosonde
WB7NNFD220353032022-12-06 23:51:2747.2661-117.191368914590Clb=3.3m/s t=-57.1C h=-1.0% p=-1.0hPa 403.211 MHz Type=DFM17 ser=22035303 Radiosonde
KA7FVVD220353032022-12-06 23:51:2047.2686-117.1941309314523Clb=4.2m/s t=-56.9C h=-1.0% p=-1.0hPa 403.211 MHz Type=DFM17 ser=22035303 Radiosonde
WB7NNFD220353032022-12-06 23:51:0647.271-117.1981319614466Clb=4.5m/s t=-57.2C h=-1.0% p=-1.0hPa 403.211 MHz Type=DFM17 ser=22035303 Radiosonde
KA7FVVD220353032022-12-06 23:50:5747.2734-117.2021329414415Clb=4.3m/s t=-57.2C h=-1.0% p=-1.0hPa 403.211 MHz Type=DFM17 ser=22035303 Radiosonde
WB7NNFD220353032022-12-06 23:50:5647.2757-117.2061319614362Clb=3.6m/s t=-58.0C h=-1.0% p=-1.0hPa 403.211 MHz Type=DFM17 ser=22035303 Radiosonde
KA7FVVD220353032022-12-06 23:50:5547.278-117.211259314301Clb=3.4m/s t=-58.6C h=-1.0% p=-1.0hPa 403.211 MHz Type=DFM17 ser=22035303 Radiosonde
KA7FVVD220353032022-12-06 23:50:5447.2822-117.2181188314180Clb=3.0m/s t=-59.0C h=-1.0% p=-1.0hPa 403.211 MHz Type=DFM17 ser=22035303 Radiosonde
WB7NNFD220353032022-12-06 23:50:5347.2841-117.2211248514120Clb=5.2m/s t=-58.8C h=-1.0% p=-1.0hPa 403.211 MHz Type=DFM17 ser=22035303 Radiosonde
KA7FVVD220353032022-12-06 23:50:5247.286-117.2251337614052Clb=5.5m/s t=-58.9C h=-1.0% p=-1.0hPa 403.211 MHz Type=DFM17 ser=22035303 Radiosonde
WB7NNFD220353032022-12-06 23:50:5147.2877-117.2291217213988Clb=5.4m/s t=-59.1C h=-1.0% p=-1.0hPa 403.207 MHz Type=DFM17 ser=22035303 Radiosonde
KA7FVVD220353032022-12-06 23:50:4047.2896-117.2331238313910Clb=5.5m/s t=-59.1C h=-1.0% p=-1.0hPa 403.211 MHz Type=DFM17 ser=22035303 Radiosonde
WB7NNFD220353032022-12-06 23:50:2347.291-117.2361267613845Clb=5.4m/s t=-59.2C h=-1.0% p=-1.0hPa 403.207 MHz Type=DFM17 ser=22035303 Radiosonde
KA7FVVD220353032022-12-06 23:49:5747.2924-117.2391215713773Clb=4.7m/s t=-59.4C h=-1.0% p=-1.0hPa 403.211 MHz Type=DFM17 ser=22035303 Radiosonde
WB7NNFD220353032022-12-06 23:49:3547.2938-117.2421207013703Clb=4.4m/s t=-59.0C h=-1.0% p=-1.0hPa 403.211 MHz Type=DFM17 ser=22035303 Radiosonde
KA7FVVD220353032022-12-06 23:49:0947.2954-117.2451226913631Clb=3.4m/s t=-59.1C h=-1.0% p=-1.0hPa 403.211 MHz Type=DFM17 ser=22035303 Radiosonde
WB7NNFD220353032022-12-06 23:48:4647.2971-117.2491307613567Clb=5.8m/s t=-59.0C h=-1.0% p=-1.0hPa 403.211 MHz Type=DFM17 ser=22035303 Radiosonde
KA7FVVD220353032022-12-06 23:48:2147.299-117.2521257013494Clb=4.7m/s t=-59.0C h=-1.0% p=-1.0hPa 403.211 MHz Type=DFM17 ser=22035303 Radiosonde
WB7NNFD220353032022-12-06 23:48:0047.3009-117.2561297213430Clb=5.3m/s t=-59.1C h=-1.0% p=-1.0hPa 403.207 MHz Type=DFM17 ser=22035303 Radiosonde
KA7FVVD220353032022-12-06 23:47:3947.303-117.2591297013362Clb=3.1m/s t=-59.0C h=-1.0% p=-1.0hPa 403.211 MHz Type=DFM17 ser=22035303 Radiosonde
WB7NNFD220353032022-12-06 23:47:1447.305-117.2621247013293Clb=4.7m/s t=-58.9C h=-1.0% p=-1.0hPa 403.207 MHz Type=DFM17 ser=22035303 Radiosonde
KA7FVVD220353032022-12-06 23:46:4647.3068-117.2661267613226Clb=5.0m/s t=-58.6C h=-1.0% p=-1.0hPa 403.211 MHz Type=DFM17 ser=22035303 Radiosonde
WB7NNFD220353032022-12-06 23:46:2247.3086-117.2691306713159Clb=4.3m/s t=-58.3C h=-1.0% p=-1.0hPa 403.207 MHz Type=DFM17 ser=22035303 Radiosonde
KA7FVVD220353032022-12-06 23:45:5747.3105-117.2731267213088Clb=4.0m/s t=-58.9C h=-1.0% p=-1.0hPa 403.211 MHz Type=DFM17 ser=22035303 Radiosonde
WB7NNFD220353032022-12-06 23:45:3447.3124-117.2761267613020Clb=4.5m/s t=-59.1C h=-1.0% p=-1.0hPa 403.207 MHz Type=DFM17 ser=22035303 Radiosonde
KA7FVVD220353032022-12-06 23:45:0847.3147-117.2791368012948Clb=5.2m/s t=-59.5C h=-1.0% p=-1.0hPa 403.211 MHz Type=DFM17 ser=22035303 Radiosonde
WB7NNFD220353032022-12-06 23:44:4647.3166-117.2831308912877Clb=4.3m/s t=-60.6C h=-1.0% p=-1.0hPa 403.211 MHz Type=DFM17 ser=22035303 Radiosonde
KA7FVVD220353032022-12-06 23:44:2047.3188-117.2871369412802Clb=3.9m/s t=-60.5C h=-1.0% p=-1.0hPa 403.211 MHz Type=DFM17 ser=22035303 Radiosonde
WB7NNFD220353032022-12-06 23:44:0047.3211-117.2911348712726Clb=5.5m/s t=-60.8C h=-1.0% p=-1.0hPa 403.211 MHz Type=DFM17 ser=22035303 Radiosonde
KA7FVVD220353032022-12-06 23:43:4447.3233-117.2941288512655Clb=5.5m/s t=-60.4C h=-1.0% p=-1.0hPa 403.211 MHz Type=DFM17 ser=22035303 Radiosonde
WB7NNFD220353032022-12-06 23:43:3047.3255-117.2981278112578Clb=4.5m/s t=-61.1C h=-1.0% p=-1.0hPa 403.207 MHz Type=DFM17 ser=22035303 Radiosonde
KA7FVVD220353032022-12-06 23:43:2747.3278-117.3021368712502Clb=4.5m/s t=-61.2C h=-1.0% p=-1.0hPa 403.211 MHz Type=DFM17 ser=22035303 Radiosonde
WB7NNFD220353032022-12-06 23:43:1747.3298-117.3051287612429Clb=3.9m/s t=-61.1C h=-1.0% p=-1.0hPa 403.211 MHz Type=DFM17 ser=22035303 Radiosonde
KA7FVVD220353032022-12-06 23:43:0347.3318-117.3091288912355Clb=5.3m/s t=-60.7C h=-1.0% p=-1.0hPa 403.211 MHz Type=DFM17 ser=22035303 Radiosonde
WB7NNFD220353032022-12-06 23:43:0047.3337-117.3121258012286Clb=4.0m/s t=-61.1C h=-1.0% p=-1.0hPa 403.211 MHz Type=DFM17 ser=22035303 Radiosonde
KA7FVVD220353032022-12-06 23:42:5947.3358-117.3161348512212Clb=5.3m/s t=-61.3C h=-1.0% p=-1.0hPa 403.211 MHz Type=DFM17 ser=22035303 Radiosonde
WB7NNFD220353032022-12-06 23:42:5247.338-117.321278512139Clb=5.4m/s t=-61.1C h=-1.0% p=-1.0hPa 403.211 MHz Type=DFM17 ser=22035303 Radiosonde
KA7FVVD220353032022-12-06 23:42:2947.3402-117.3241357812071Clb=4.3m/s t=-61.1C h=-1.0% p=-1.0hPa 403.211 MHz Type=DFM17 ser=22035303 Radiosonde
WB7NNFD220353032022-12-06 23:42:0547.3425-117.3271388012008Clb=3.7m/s t=-60.8C h=-1.0% p=-1.0hPa 403.211 MHz Type=DFM17 ser=22035303 Radiosonde
KA7FVVD220353032022-12-06 23:41:4147.3451-117.331448711940Clb=5.2m/s t=-60.6C h=-1.0% p=-1.0hPa 403.211 MHz Type=DFM17 ser=22035303 Radiosonde
WB7NNFD220353032022-12-06 23:41:1847.3475-117.3331437811880Clb=4.5m/s t=-60.8C h=-1.0% p=-1.0hPa 403.211 MHz Type=DFM17 ser=22035303 Radiosonde
KA7FVVD220353032022-12-06 23:40:5447.3503-117.3361489311811Clb=2.9m/s t=-61.2C h=-1.0% p=-1.0hPa 403.211 MHz Type=DFM17 ser=22035303 Radiosonde
WB7NNFD220353032022-12-06 23:40:3147.353-117.3381417411750Clb=4.7m/s t=-60.9C h=-1.0% p=-1.0hPa 403.211 MHz Type=DFM17 ser=22035303 Radiosonde
KA7FVVD220353032022-12-06 23:40:0847.3557-117.3411389311676Clb=6.5m/s t=-61.1C h=-1.0% p=-1.0hPa 403.211 MHz Type=DFM17 ser=22035303 Radiosonde
WB7NNFD220353032022-12-06 23:39:5147.3585-117.3431519311586Clb=4.8m/s t=-62.2C h=-1.0% p=-1.0hPa 403.211 MHz Type=DFM17 ser=22035303 Radiosonde
KA7FVVD220353032022-12-06 23:39:3547.3618-117.3451529311518Clb=5.4m/s t=-62.9C h=-1.0% p=-1.0hPa 403.211 MHz Type=DFM17 ser=22035303 Radiosonde
WB7NNFD220353032022-12-06 23:39:2047.3652-117.34814810011450Clb=4.1m/s t=-63.1C h=-1.0% p=-1.0hPa 403.211 MHz Type=DFM17 ser=22035303 Radiosonde
KA7FVVD220353032022-12-06 23:39:0547.3684-117.35114610411385Clb=4.7m/s t=-63.4C h=-1.0% p=-1.0hPa 403.211 MHz Type=DFM17 ser=22035303 Radiosonde
WB7NNFD220353032022-12-06 23:38:4947.3717-117.35514310011314Clb=4.8m/s t=-63.2C h=-1.0% p=-1.0hPa 403.211 MHz Type=DFM17 ser=22035303 Radiosonde
KA7FVVD220353032022-12-06 23:38:3347.375-117.3591369811238Clb=4.3m/s t=-62.8C h=-1.0% p=-1.0hPa 403.211 MHz Type=DFM17 ser=22035303 Radiosonde
WB7NNFD220353032022-12-06 23:38:1847.378-117.36213610611169Clb=5.0m/s t=-62.4C h=-1.0% p=-1.0hPa 403.211 MHz Type=DFM17 ser=22035303 Radiosonde
KA7FVVD220353032022-12-06 23:38:1547.381-117.36614010411091Clb=4.8m/s t=-62.0C h=-1.0% p=-1.0hPa 403.211 MHz Type=DFM17 ser=22035303 Radiosonde
WB7NNFD220353032022-12-06 23:38:1447.3837-117.371409411023Clb=5.5m/s t=-61.5C h=-1.0% p=-1.0hPa 403.211 MHz Type=DFM17 ser=22035303 Radiosonde
KA7FVVD220353032022-12-06 23:38:0847.3866-117.3741409410950Clb=3.7m/s t=-60.9C h=-1.0% p=-1.0hPa 403.211 MHz Type=DFM17 ser=22035303 Radiosonde
WB7NNFD220353032022-12-06 23:37:5047.3892-117.3771359410883Clb=5.2m/s t=-60.5C h=-1.0% p=-1.0hPa 403.211 MHz Type=DFM17 ser=22035303 Radiosonde
KA7FVVD220353032022-12-06 23:37:2647.3921-117.381418710806Clb=3.8m/s t=-59.9C h=-1.0% p=-1.0hPa 403.211 MHz Type=DFM17 ser=22035303 Radiosonde
WB7NNFD220353032022-12-06 23:37:0147.3947-117.3841499810738Clb=5.8m/s t=-59.8C h=-1.0% p=-1.0hPa 403.211 MHz Type=DFM17 ser=22035303 Radiosonde
KA7FVVD220353032022-12-06 23:36:3847.3976-117.3861539110670Clb=3.9m/s t=-59.9C h=-1.0% p=-1.0hPa 403.211 MHz Type=DFM17 ser=22035303 Radiosonde
WB7NNFD220353032022-12-06 23:36:1747.4011-117.3891569810602Clb=5.0m/s t=-59.7C h=-1.0% p=-1.0hPa 403.211 MHz Type=DFM17 ser=22035303 Radiosonde
KA7FVVD220353032022-12-06 23:35:5847.4043-117.3911599310541Clb=4.1m/s t=-59.3C h=-1.0% p=-1.0hPa 403.211 MHz Type=DFM17 ser=22035303 Radiosonde
WB7NNFD220353032022-12-06 23:35:4447.4076-117.39315810710473Clb=5.0m/s t=-58.9C h=-1.0% p=-1.0hPa 403.211 MHz Type=DFM17 ser=22035303 Radiosonde
KA7FVVD220353032022-12-06 23:35:2747.4108-117.3951648710399Clb=5.4m/s t=-58.5C h=-1.0% p=-1.0hPa 403.211 MHz Type=DFM17 ser=22035303 Radiosonde
WB7NNFD220353032022-12-06 23:35:1247.4142-117.3961629310332Clb=2.9m/s t=-58.6C h=-1.0% p=-1.0hPa 403.211 MHz Type=DFM17 ser=22035303 Radiosonde
KA7FVVD220353032022-12-06 23:34:5647.4177-117.39717010010272Clb=4.7m/s t=-58.3C h=-1.0% p=-1.0hPa 403.211 MHz Type=DFM17 ser=22035303 Radiosonde
WB7NNFD220353032022-12-06 23:34:4247.4218-117.39917110210208Clb=4.5m/s t=-58.0C h=-1.0% p=-1.0hPa 403.211 MHz Type=DFM17 ser=22035303 Radiosonde
KA7FVVD220353032022-12-06 23:34:2547.4255-117.417110210153Clb=4.5m/s t=-57.7C h=-1.0% p=-1.0hPa 403.211 MHz Type=DFM17 ser=22035303 Radiosonde
WB7NNFD220353032022-12-06 23:34:1047.4291-117.40117110010094Clb=3.2m/s t=-57.4C h=-1.0% p=-1.0hPa 403.211 MHz Type=DFM17 ser=22035303 Radiosonde
KA7FVVD220353032022-12-06 23:33:5447.433-117.4021689810035Clb=4.6m/s t=-57.0C h=-1.0% p=-1.0hPa 403.211 MHz Type=DFM17 ser=22035303 Radiosonde
WB7NNFD220353032022-12-06 23:33:4947.4366-117.403170969977Clb=3.8m/s t=-56.7C h=-1.0% p=-1.0hPa 403.211 MHz Type=DFM17 ser=22035303 Radiosonde
KA7FVVD220353032022-12-06 23:33:4547.4404-117.4051641049920Clb=3.9m/s t=-56.3C h=-1.0% p=-1.0hPa 403.211 MHz Type=DFM17 ser=22035303 Radiosonde
WB7NNFD220353032022-12-06 23:33:3247.4441-117.406163949866Clb=4.0m/s t=-55.8C h=-1.0% p=-1.0hPa 403.211 MHz Type=DFM17 ser=22035303 Radiosonde
KA7FVVD220353032022-12-06 23:33:0947.448-117.4081641069804Clb=4.2m/s t=-55.4C h=-1.0% p=-1.0hPa 403.211 MHz Type=DFM17 ser=22035303 Radiosonde
WB7NNFD220353032022-12-06 23:32:4847.4517-117.4091601119747Clb=4.5m/s t=-55.2C h=-1.0% p=-1.0hPa 403.211 MHz Type=DFM17 ser=22035303 Radiosonde
KA7FVVD220353032022-12-06 23:32:2747.456-117.4111641079684Clb=4.2m/s t=-54.7C h=-1.0% p=-1.0hPa 403.211 MHz Type=DFM17 ser=22035303 Radiosonde
WB7NNFD220353032022-12-06 23:32:0647.4599-117.4131641009629Clb=4.5m/s t=-54.3C h=-1.0% p=-1.0hPa 403.211 MHz Type=DFM17 ser=22035303 Radiosonde
KA7FVVD220353032022-12-06 23:31:4947.4636-117.4141611029568Clb=3.6m/s t=-54.0C h=-1.0% p=-1.0hPa 403.211 MHz Type=DFM17 ser=22035303 Radiosonde
WB7NNFD220353032022-12-06 23:31:3447.4675-117.4161651079506Clb=4.0m/s t=-53.6C h=-1.0% p=-1.0hPa 403.211 MHz Type=DFM17 ser=22035303 Radiosonde
KA7FVVD220353032022-12-06 23:31:1847.4715-117.4171641049443Clb=4.5m/s t=-53.2C h=-1.0% p=-1.0hPa 403.211 MHz Type=DFM17 ser=22035303 Radiosonde
WA7BFND220353032022-12-06 23:31:1447.4749-117.4191661029384Clb=3.4m/s t=-52.8C h=-1.0% p=-1.0hPa 403.204 MHz Type=DFM17 ser=22035303 Radiosonde
WB7NNFD220353032022-12-06 23:31:0347.4752-117.4191621029380Clb=4.4m/s t=-52.8C h=-1.0% p=-1.0hPa 403.211 MHz Type=DFM17 ser=22035303 Radiosonde
KA7FVVD220353032022-12-06 23:30:4747.479-117.4211561009312Clb=3.2m/s t=-52.3C h=-1.0% p=-1.0hPa 403.211 MHz Type=DFM17 ser=22035303 Radiosonde
WA7BFND220353032022-12-06 23:30:4347.4799-117.4221611029295Clb=4.4m/s t=-52.3C h=-1.0% p=-1.0hPa 403.204 MHz Type=DFM17 ser=22035303 Radiosonde
WB7NNFD220353032022-12-06 23:30:3247.4825-117.423164989250Clb=4.9m/s t=-52.0C h=-1.0% p=-1.0hPa 403.211 MHz Type=DFM17 ser=22035303 Radiosonde
KA7FVVD220353032022-12-06 23:30:1647.4863-117.4251611069182Clb=5.1m/s t=-51.7C h=-1.0% p=-1.0hPa 403.211 MHz Type=DFM17 ser=22035303 Radiosonde
WB7NNFD220353032022-12-06 23:30:0147.4899-117.4261641079115Clb=4.4m/s t=-51.1C h=-1.0% p=-1.0hPa 403.211 MHz Type=DFM17 ser=22035303 Radiosonde
KA7FVVD220353032022-12-06 23:29:4547.4941-117.4281701029035Clb=4.7m/s t=-50.4C h=-1.0% p=-1.0hPa 403.211 MHz Type=DFM17 ser=22035303 Radiosonde
WB7NNFD220353032022-12-06 23:29:3047.4978-117.4291671068963Clb=5.2m/s t=-50.0C h=-1.0% p=-1.0hPa 403.211 MHz Type=DFM17 ser=22035303 Radiosonde
KA7FVVD220353032022-12-06 23:29:2247.5015-117.431651008895Clb=5.0m/s t=-49.5C h=-1.0% p=-1.0hPa 403.211 MHz Type=DFM17 ser=22035303 Radiosonde
WA7BFND220353032022-12-06 23:29:2047.503-117.4311691048868Clb=4.7m/s t=-49.2C h=-1.0% p=-1.0hPa 403.204 MHz Type=DFM17 ser=22035303 Radiosonde
WB7NNFD220353032022-12-06 23:29:0947.5056-117.4311651098824Clb=4.3m/s t=-48.9C h=-1.0% p=-1.0hPa 403.211 MHz Type=DFM17 ser=22035303 Radiosonde
KA7FVVD220353032022-12-06 23:28:5147.5094-117.4331681028759Clb=4.5m/s t=-48.3C h=-1.0% p=-1.0hPa 403.211 MHz Type=DFM17 ser=22035303 Radiosonde
WB7NNFD220353032022-12-06 23:28:3247.5134-117.4341701078690Clb=4.1m/s t=-47.7C h=-1.0% p=-1.0hPa 403.211 MHz Type=DFM17 ser=22035303 Radiosonde
KA7FVVD220353032022-12-06 23:28:1347.5172-117.4351631028627Clb=4.3m/s t=-47.1C h=-1.0% p=-1.0hPa 403.211 MHz Type=DFM17 ser=22035303 Radiosonde
WB7NNFD220353032022-12-06 23:27:5747.5212-117.4371611048563Clb=4.7m/s t=-46.6C h=-1.0% p=-1.0hPa 403.211 MHz Type=DFM17 ser=22035303 Radiosonde
KA7FVVD220353032022-12-06 23:27:4147.525-117.4381671068501Clb=3.0m/s t=-46.1C h=-1.0% p=-1.0hPa 403.211 MHz Type=DFM17 ser=22035303 Radiosonde
WB7NNFD220353032022-12-06 23:27:2547.5292-117.441671048431Clb=3.0m/s t=-45.6C h=-1.0% p=-1.0hPa 403.211 MHz Type=DFM17 ser=22035303 Radiosonde
KA7FVVD220353032022-12-06 23:27:1147.5328-117.442160898372Clb=3.1m/s t=-45.1C h=-1.0% p=-1.0hPa 403.211 MHz Type=DFM17 ser=22035303 Radiosonde
WB7NNFD220353032022-12-06 23:26:5447.5364-117.443157938313Clb=4.8m/s t=-44.5C h=-1.0% p=-1.0hPa 403.211 MHz Type=DFM17 ser=22035303 Radiosonde
KA7FVVD220353032022-12-06 23:26:3947.5399-117.445161938253Clb=3.9m/s t=-44.0C h=-1.0% p=-1.0hPa 403.211 MHz Type=DFM17 ser=22035303 Radiosonde
WA7BFND220353032022-12-06 23:26:3547.5408-117.446158938238Clb=3.8m/s t=-43.8C h=-1.0% p=-1.0hPa 403.204 MHz Type=DFM17 ser=22035303 Radiosonde
WB7NNFD220353032022-12-06 23:26:2347.5436-117.447163988192Clb=3.6m/s t=-43.3C h=-1.0% p=-1.0hPa 403.211 MHz Type=DFM17 ser=22035303 Radiosonde
KA7FVVD220353032022-12-06 23:26:0847.5471-117.449160988135Clb=4.6m/s t=-42.8C h=-1.0% p=-1.0hPa 403.211 MHz Type=DFM17 ser=22035303 Radiosonde
WB7NNFD220353032022-12-06 23:25:5247.5508-117.4511621048072Clb=4.6m/s t=-42.4C h=-1.0% p=-1.0hPa 403.211 MHz Type=DFM17 ser=22035303 Radiosonde
KA7FVVD220353032022-12-06 23:25:3747.5543-117.452165988010Clb=3.8m/s t=-41.9C h=-1.0% p=-1.0hPa 403.211 MHz Type=DFM17 ser=22035303 Radiosonde
WB7NNFD220353032022-12-06 23:25:2147.558-117.4541601047942Clb=4.5m/s t=-41.4C h=-1.0% p=-1.0hPa 403.211 MHz Type=DFM17 ser=22035303 Radiosonde
KA7FVVD220353032022-12-06 23:25:1247.5619-117.456170967868Clb=3.7m/s t=-40.9C h=-1.0% p=-1.0hPa 403.211 MHz Type=DFM17 ser=22035303 Radiosonde
WA7BFND220353032022-12-06 23:25:1047.5632-117.456167917841Clb=4.4m/s t=-40.6C h=-1.0% p=-1.0hPa 403.204 MHz Type=DFM17 ser=22035303 Radiosonde
WB7NNFD220353032022-12-06 23:24:5847.5652-117.457164917798Clb=4.7m/s t=-40.3C h=-1.0% p=-1.0hPa 403.211 MHz Type=DFM17 ser=22035303 Radiosonde
KA7FVVD220353032022-12-06 23:24:4047.5686-117.4581721097727Clb=5.7m/s t=-39.7C h=-1.0% p=-1.0hPa 403.211 MHz Type=DFM17 ser=22035303 Radiosonde
WB7NNFD220353032022-12-06 23:24:2147.572-117.461711117642Clb=6.8m/s t=-38.9C h=-1.0% p=-1.0hPa 403.211 MHz Type=DFM17 ser=22035303 Radiosonde
KA7FVVD220353032022-12-06 23:24:0447.5754-117.461172877536Clb=6.7m/s t=-38.0C h=-1.0% p=-1.0hPa 403.211 MHz Type=DFM17 ser=22035303 Radiosonde
WA7BFND220353032022-12-06 23:24:0047.5771-117.462168857490Clb=6.1m/s t=-37.6C h=-1.0% p=-1.0hPa 403.204 MHz Type=DFM17 ser=22035303 Radiosonde
WB7NNFD220353032022-12-06 23:23:4847.5785-117.462162897454Clb=3.8m/s t=-37.2C h=-1.0% p=-1.0hPa 403.211 MHz Type=DFM17 ser=22035303 Radiosonde
KA7FVVD220353032022-12-06 23:23:3247.5819-117.4641471027362Clb=6.3m/s t=-36.4C h=-1.0% p=-1.0hPa 403.211 MHz Type=DFM17 ser=22035303 Radiosonde
WA7BFND220353032022-12-06 23:23:2947.583-117.465152817330Clb=4.9m/s t=-36.2C h=-1.0% p=-1.0hPa 403.204 MHz Type=DFM17 ser=22035303 Radiosonde
WB7NNFD220353032022-12-06 23:23:1747.5849-117.466156857286Clb=4.9m/s t=-36.0C h=-1.0% p=-1.0hPa 403.211 MHz Type=DFM17 ser=22035303 Radiosonde
KA7FVVD220353032022-12-06 23:23:0147.5882-117.469158937205Clb=4.1m/s t=-35.4C h=-1.0% p=-1.0hPa 403.211 MHz Type=DFM17 ser=22035303 Radiosonde
WA7BFND220353032022-12-06 23:22:5847.5905-117.47162937154Clb=5.5m/s t=-35.0C h=-1.0% p=-1.0hPa 403.204 MHz Type=DFM17 ser=22035303 Radiosonde
WB7NNFD220353032022-12-06 23:22:4647.5914-117.471161917130Clb=7.2m/s t=-34.9C h=-1.0% p=-1.0hPa 403.211 MHz Type=DFM17 ser=22035303 Radiosonde
KA7FVVD220353032022-12-06 23:22:3047.5952-117.4731561007040Clb=5.8m/s t=-34.1C h=-1.0% p=-1.0hPa 403.211 MHz Type=DFM17 ser=22035303 Radiosonde
WA7BFND220353032022-12-06 23:22:2747.5959-117.473157937027Clb=4.1m/s t=-273.0C h=-1.0% p=-1.0hPa 403.204 MHz Type=DFM17 ser=22035303 Radiosonde
WB7NNFD220353032022-12-06 23:22:1547.5987-117.4751611026977Clb=4.0m/s t=-33.6C h=-1.0% p=-1.0hPa 403.211 MHz Type=DFM17 ser=22035303 Radiosonde
KA7FVVD220353032022-12-06 23:21:5947.6023-117.477157946912Clb=7.1m/s t=-33.4C h=-1.0% p=-1.0hPa 403.211 MHz Type=DFM17 ser=22035303 Radiosonde
WB7NNFD220353032022-12-06 23:21:4447.6056-117.479157936816Clb=5.3m/s t=-33.1C h=-1.0% p=-1.0hPa 403.211 MHz Type=DFM17 ser=22035303 Radiosonde
KA7FVVD220353032022-12-06 23:21:2847.6088-117.481155916746Clb=3.5m/s t=-32.9C h=-1.0% p=-1.0hPa 403.211 MHz Type=DFM17 ser=22035303 Radiosonde
WB7NNFD220353032022-12-06 23:21:1347.6118-117.484143786674Clb=4.3m/s t=-32.9C h=-1.0% p=-1.0hPa 403.211 MHz Type=DFM17 ser=22035303 Radiosonde
KA7FVVD220353032022-12-06 23:20:5747.6145-117.486149786605Clb=4.2m/s t=-32.7C h=-1.0% p=-1.0hPa 403.211 MHz Type=DFM17 ser=22035303 Radiosonde
WB7NNFD220353032022-12-06 23:20:4447.6172-117.489142766544Clb=4.5m/s t=-32.7C h=-1.0% p=-1.0hPa 403.211 MHz Type=DFM17 ser=22035303 Radiosonde
KA7FVVD220353032022-12-06 23:20:2747.6198-117.491138916476Clb=4.0m/s t=-32.5C h=-1.0% p=-1.0hPa 403.211 MHz Type=DFM17 ser=22035303 Radiosonde
WA7BFND220353032022-12-06 23:20:2347.6213-117.493144786436Clb=5.3m/s t=-32.1C h=-1.0% p=-1.0hPa 403.207 MHz Type=DFM17 ser=22035303 Radiosonde
WB7NNFD220353032022-12-06 23:20:1147.6225-117.494139746392Clb=8.1m/s t=-31.8C h=-1.0% p=-1.0hPa 403.211 MHz Type=DFM17 ser=22035303 Radiosonde
KA7FVVD220353032022-12-06 23:19:5547.6248-117.497137816315Clb=3.9m/s t=-31.5C h=-1.0% p=-1.0hPa 403.211 MHz Type=DFM17 ser=22035303 Radiosonde
WA7BFND220353032022-12-06 23:19:5147.6252-117.498126786302Clb=4.4m/s t=-31.5C h=-1.0% p=-1.0hPa 403.207 MHz Type=DFM17 ser=22035303 Radiosonde
WB7NNFD220353032022-12-06 23:19:3947.6269-117.5137636242Clb=5.8m/s t=-31.1C h=-1.0% p=-1.0hPa 403.211 MHz Type=DFM17 ser=22035303 Radiosonde
KA7FVVD220353032022-12-06 23:19:2447.6289-117.503140836154Clb=5.2m/s t=-30.7C h=-1.0% p=-1.0hPa 403.211 MHz Type=DFM17 ser=22035303 Radiosonde
WA7BFND220353032022-12-06 23:19:2047.6306-117.505129636087Clb=7.6m/s t=-30.3C h=-1.0% p=-1.0hPa 403.207 MHz Type=DFM17 ser=22035303 Radiosonde
WB7NNFD220353032022-12-06 23:19:0847.6311-117.506137746064Clb=5.0m/s t=-30.2C h=-1.0% p=-1.0hPa 403.211 MHz Type=DFM17 ser=22035303 Radiosonde
KA7FVVD220353032022-12-06 23:18:5347.6331-117.509149745994Clb=6.1m/s t=-29.9C h=-1.0% p=-1.0hPa 403.211 MHz Type=DFM17 ser=22035303 Radiosonde
WA7BFND220353032022-12-06 23:18:5047.6336-117.509128765971Clb=5.8m/s t=-29.8C h=-1.0% p=-1.0hPa 403.207 MHz Type=DFM17 ser=22035303 Radiosonde
WB7NNFD220353032022-12-06 23:18:3747.6352-117.511133655898Clb=5.8m/s t=-29.4C h=-1.0% p=-1.0hPa 403.207 MHz Type=DFM17 ser=22035303 Radiosonde
KA7FVVD220353032022-12-06 23:18:2247.6369-117.514146615819Clb=3.2m/s t=-29.0C h=-1.0% p=-1.0hPa 403.211 MHz Type=DFM17 ser=22035303 Radiosonde
WA7BFND220353032022-12-06 23:18:1847.638-117.515131575772Clb=7.3m/s t=-28.6C h=-1.0% p=-1.0hPa 403.207 MHz Type=DFM17 ser=22035303 Radiosonde
WB7NNFD220353032022-12-06 23:18:0647.6387-117.516122545734Clb=6.0m/s t=-28.3C h=-1.0% p=-1.0hPa 403.207 MHz Type=DFM17 ser=22035303 Radiosonde
KA7FVVD220353032022-12-06 23:17:5147.6407-117.519130465644Clb=5.4m/s t=-27.5C h=-1.0% p=-1.0hPa 403.211 MHz Type=DFM17 ser=22035303 Radiosonde
WA7BFND220353032022-12-06 23:17:4747.6412-117.519148765617Clb=6.8m/s t=-27.3C h=-1.0% p=-1.0hPa 403.207 MHz Type=DFM17 ser=22035303 Radiosonde
KA7FVVD220353032022-12-06 23:17:2047.6445-117.524149545445Clb=6.1m/s t=-26.1C h=-1.0% p=-1.0hPa 403.211 MHz Type=DFM17 ser=22035303 Radiosonde
WA7BFND220353032022-12-06 23:17:1647.6453-117.525146635391Clb=7.6m/s t=-25.7C h=-1.0% p=-1.0hPa 403.207 MHz Type=DFM17 ser=22035303 Radiosonde
KA7FVVD220353032022-12-06 23:16:4947.6474-117.53127815256Clb=5.7m/s t=-24.5C h=-1.0% p=-1.0hPa 403.211 MHz Type=DFM17 ser=22035303 Radiosonde
WA7BFND220353032022-12-06 23:16:4547.648-117.53129545232Clb=5.9m/s t=-24.2C h=-1.0% p=-1.0hPa 403.207 MHz Type=DFM17 ser=22035303 Radiosonde
WB7NNFD220353032022-12-06 23:16:3447.6502-117.535125545095Clb=5.0m/s t=-22.9C h=-1.0% p=-1.0hPa 403.207 MHz Type=DFM17 ser=22035303 Radiosonde
KA7FVVD220353032022-12-06 23:16:1847.6508-117.536114725063Clb=5.7m/s t=-22.6C h=-1.0% p=-1.0hPa 403.211 MHz Type=DFM17 ser=22035303 Radiosonde
WA7BFND220353032022-12-06 23:16:1547.6513-117.538116785021Clb=5.0m/s t=-22.3C h=-1.0% p=-1.0hPa 403.207 MHz Type=DFM17 ser=22035303 Radiosonde
KA7FVVD220353032022-12-06 23:15:4747.6537-117.543117594888Clb=6.2m/s t=-21.1C h=-1.0% p=-1.0hPa 403.211 MHz Type=DFM17 ser=22035303 Radiosonde
WA7BFND220353032022-12-06 23:15:4347.6543-117.544138564859Clb=4.7m/s t=-20.8C h=-1.0% p=-1.0hPa 403.207 MHz Type=DFM17 ser=22035303 Radiosonde
WB7NNFD220353032022-12-06 23:15:3147.6554-117.546115744807Clb=3.9m/s t=-20.4C h=-1.0% p=-1.0hPa 403.204 MHz Type=DFM17 ser=22035303 Radiosonde
KA7FVVD220353032022-12-06 23:15:1647.6573-117.549145524707Clb=6.0m/s t=-19.5C h=-1.0% p=-1.0hPa 403.211 MHz Type=DFM17 ser=22035303 Radiosonde
WA7BFND220353032022-12-06 23:15:1247.6579-117.55118614679Clb=5.9m/s t=-19.2C h=-1.0% p=-1.0hPa 403.207 MHz Type=DFM17 ser=22035303 Radiosonde
KA7FVVD220353032022-12-06 23:14:4447.6608-117.554129724531Clb=6.9m/s t=-17.8C h=-1.0% p=-1.0hPa 403.211 MHz Type=DFM17 ser=22035303 Radiosonde
WA7BFND220353032022-12-06 23:14:4147.661-117.555120674511Clb=5.3m/s t=-17.6C h=-1.0% p=-1.0hPa 403.207 MHz Type=DFM17 ser=22035303 Radiosonde
KA7FVVD220353032022-12-06 23:14:1347.6643-117.56145634340Clb=5.5m/s t=-16.4C h=-1.0% p=-1.0hPa 403.211 MHz Type=DFM17 ser=22035303 Radiosonde
WA7BFND220353032022-12-06 23:14:1047.6646-117.561120764322Clb=6.3m/s t=-16.3C h=-1.0% p=-1.0hPa 403.211 MHz Type=DFM17 ser=22035303 Radiosonde
KA7FVVD220353032022-12-06 23:13:4247.6672-117.566128464166Clb=4.3m/s t=-15.8C h=-1.0% p=-1.0hPa 403.211 MHz Type=DFM17 ser=22035303 Radiosonde
WA7BFND220353032022-12-06 23:13:3947.6674-117.566133594156Clb=4.6m/s t=-15.7C h=-1.0% p=-1.0hPa 403.211 MHz Type=DFM17 ser=22035303 Radiosonde
KA7FVVD220353032022-12-06 23:13:1147.6703-117.572123543993Clb=5.9m/s t=-14.7C h=-1.0% p=-1.0hPa 403.211 MHz Type=DFM17 ser=22035303 Radiosonde
WA7BFND220353032022-12-06 23:13:0847.6706-117.573129763965Clb=6.0m/s t=-14.6C h=-1.0% p=-1.0hPa 403.211 MHz Type=DFM17 ser=22035303 Radiosonde
KA7FVVD220353032022-12-06 23:12:4047.6729-117.578108673808Clb=5.5m/s t=-14.3C h=-1.0% p=-1.0hPa 403.211 MHz Type=DFM17 ser=22035303 Radiosonde
WA7BFND220353032022-12-06 23:12:3747.6731-117.578125703797Clb=5.2m/s t=-14.3C h=-1.0% p=-1.0hPa 403.207 MHz Type=DFM17 ser=22035303 Radiosonde
WB7NNFD220353032022-12-06 23:12:2547.6743-117.582128653692Clb=5.4m/s t=-14.0C h=-1.0% p=-1.0hPa 403.204 MHz Type=DFM17 ser=22035303 Radiosonde
KA7FVVD220353032022-12-06 23:12:0947.6749-117.583136413635Clb=5.0m/s t=-13.7C h=-1.0% p=-1.0hPa 403.211 MHz Type=DFM17 ser=22035303 Radiosonde
WA7BFND220353032022-12-06 23:12:0647.6753-117.584112633614Clb=5.6m/s t=-13.6C h=-1.0% p=-1.0hPa 403.207 MHz Type=DFM17 ser=22035303 Radiosonde
KA7FVVD220353032022-12-06 23:11:3847.6772-117.588119673468Clb=5.1m/s t=-13.0C h=-1.0% p=-1.0hPa 403.211 MHz Type=DFM17 ser=22035303 Radiosonde
WA7BFND220353032022-12-06 23:11:3447.6777-117.589127443445Clb=7.0m/s t=-12.8C h=-1.0% p=-1.0hPa 403.207 MHz Type=DFM17 ser=22035303 Radiosonde
WB7NNFD220353032022-12-06 23:11:2547.6789-117.592114543336Clb=4.8m/s t=-12.0C h=-1.0% p=-1.0hPa 403.204 MHz Type=DFM17 ser=22035303 Radiosonde
KA7FVVD220353032022-12-06 23:11:0747.6795-117.593128573285Clb=6.9m/s t=-11.6C h=-1.0% p=-1.0hPa 403.211 MHz Type=DFM17 ser=22035303 Radiosonde
WA7BFND220353032022-12-06 23:11:0347.6797-117.59396463256Clb=5.3m/s t=-11.3C h=-1.0% p=-1.0hPa 403.211 MHz Type=DFM17 ser=22035303 Radiosonde
KA7FVVD220353032022-12-06 23:10:3647.6807-117.59786373104Clb=5.0m/s t=-10.5C h=-1.0% p=-1.0hPa 403.211 MHz Type=DFM17 ser=22035303 Radiosonde
WA7BFND220353032022-12-06 23:10:3247.6809-117.598131333078Clb=5.6m/s t=-10.4C h=-1.0% p=-1.0hPa 403.207 MHz Type=DFM17 ser=22035303 Radiosonde
KA7FVVD220353032022-12-06 23:10:0547.6816-117.60182242933Clb=4.7m/s t=-10.1C h=-1.0% p=-1.0hPa 403.211 MHz Type=DFM17 ser=22035303 Radiosonde
WA7BFND220353032022-12-06 23:10:0147.6817-117.601141302912Clb=5.5m/s t=-10.0C h=-1.0% p=-1.0hPa 403.211 MHz Type=DFM17 ser=22035303 Radiosonde
KA7FVVD220353032022-12-06 23:09:3447.6824-117.60375132759Clb=5.0m/s t=-9.4C h=-1.0% p=-1.0hPa 403.211 MHz Type=DFM17 ser=22035303 Radiosonde
WA7BFND220353032022-12-06 23:09:3047.6825-117.603146302736Clb=5.1m/s t=-9.2C h=-1.0% p=-1.0hPa 403.211 MHz Type=DFM17 ser=22035303 Radiosonde
KA7FVVD220353032022-12-06 23:09:0347.6829-117.605131152572Clb=5.9m/s t=-9.1C h=-1.0% p=-1.0hPa 403.211 MHz Type=DFM17 ser=22035303 Radiosonde
WA7BFND220353032022-12-06 23:08:5947.6829-117.60571432547Clb=6.5m/s t=-9.0C h=-1.0% p=-1.0hPa 403.211 MHz Type=DFM17 ser=22035303 Radiosonde
KA7FVVD220353032022-12-06 23:08:3247.683-117.6085492387Clb=6.5m/s t=-8.8C h=-1.0% p=-1.0hPa 403.211 MHz Type=DFM17 ser=22035303 Radiosonde
WA7BFND220353032022-12-06 23:08:2847.6829-117.60883332370Clb=5.6m/s t=-8.7C h=-1.0% p=-1.0hPa 403.207 MHz Type=DFM17 ser=22035303 Radiosonde
KA7FVVD220353032022-12-06 23:08:0047.6832-117.61133172219Clb=5.0m/s t=-8.1C h=-1.0% p=-1.0hPa 403.211 MHz Type=DFM17 ser=22035303 Radiosonde
WA7BFND220353032022-12-06 23:07:5747.6832-117.6181332202Clb=6.3m/s t=-8.1C h=-1.0% p=-1.0hPa 403.211 MHz Type=DFM17 ser=22035303 Radiosonde
KA7FVVD220353032022-12-06 23:07:2947.6838-117.612136302052Clb=5.1m/s t=-7.7C h=-1.0% p=-1.0hPa 403.211 MHz Type=DFM17 ser=22035303 Radiosonde
WA7BFND220353032022-12-06 23:07:2647.6839-117.6137442037Clb=4.5m/s t=-7.6C h=-1.0% p=-1.0hPa 403.211 MHz Type=DFM17 ser=22035303 Radiosonde
KA7FVVD220353032022-12-06 23:06:5847.6844-117.615122311884Clb=5.2m/s t=-6.7C h=-1.0% p=-1.0hPa 403.211 MHz Type=DFM17 ser=22035303 Radiosonde
WA7BFND220353032022-12-06 23:06:5547.6845-117.61580171860Clb=4.9m/s t=-6.5C h=-1.0% p=-1.0hPa 403.211 MHz Type=DFM17 ser=22035303 Radiosonde
KA7FVVD220353032022-12-06 23:06:2747.6848-117.61711441700Clb=4.5m/s t=-6.6C h=-1.0% p=-1.0hPa 403.211 MHz Type=DFM17 ser=22035303 Radiosonde
WA7BFND220353032022-12-06 23:06:2447.6848-117.61774171690Clb=5.8m/s t=-6.6C h=-1.0% p=-1.0hPa 403.211 MHz Type=DFM17 ser=22035303 Radiosonde
KA7FVVD220353032022-12-06 23:05:5647.6844-117.6254151533Clb=6.4m/s t=-6.6C h=-1.0% p=-1.0hPa 403.211 MHz Type=DFM17 ser=22035303 Radiosonde
KA7FVVD220353032022-12-06 23:05:2547.6841-117.62393201367Clb=4.5m/s t=-6.7C h=-1.0% p=-1.0hPa 403.211 MHz Type=DFM17 ser=22035303 Radiosonde
KA7FVVD220353032022-12-06 23:04:5747.6835-117.62558221196Clb=5.0m/s t=-10.3C h=-1.0% p=-1.0hPa 403.211 MHz Type=DFM17 ser=22035303 Radiosonde